<?xml version="1.0" encoding="UTF-8" standalone="no" ?><gpx xmlns="http://www.topografix.com/GPX/1/1" xmlns:gpxx="http://www.garmin.com/xmlschemas/GpxExtensions/v3" xmlns:wptx1="http://www.garmin.com/xmlschemas/WaypointExtension/v1" xmlns:gpxtpx="http://www.garmin.com/xmlschemas/TrackPointExtension/v1" creator="GuideVTT.com" version="1.1" xmlns:xsi="http://www.w3.org/2001/XMLSchema-instance" xsi:schemaLocation="http://www.topografix.com/GPX/1/1 http://www.topografix.com/GPX/1/1/gpx.xsd http://www.garmin.com/xmlschemas/GpxExtensions/v3 http://www8.garmin.com/xmlschemas/GpxExtensionsv3.xsd http://www.garmin.com/xmlschemas/WaypointExtension/v1 http://www8.garmin.com/xmlschemas/WaypointExtensionv1.xsd http://www.garmin.com/xmlschemas/TrackPointExtension/v1 http://www.garmin.com/xmlschemas/TrackPointExtensionv1.xsd">
<metadata><link href="http://www.garmin.com"><text>Garmin International</text></link><time>2013-06-22T15:13:50Z</time></metadata>
<trk><name>2012-06-19b.gpx</name><extensions><gpxx:TrackExtension><gpxx:DisplayColor>Cyan</gpxx:DisplayColor></gpxx:TrackExtension></extensions><trkseg>
<trkpt lat="48.18632425" lon="11.61004473"><ele>498.580933</ele><time>2012-06-19T15:43:48Z</time></trkpt>
<trkpt lat="48.18641461" lon="11.60983929"><ele>498.100342</ele><time>2012-06-19T15:43:51Z</time></trkpt>
<trkpt lat="48.18641536" lon="11.60952531"><ele>497.138916</ele><time>2012-06-19T15:43:55Z</time></trkpt>
<trkpt lat="48.18633582" lon="11.60911644"><ele>496.658325</ele><time>2012-06-19T15:44:00Z</time></trkpt>
<trkpt lat="48.18635635" lon="11.60837774"><ele>496.177734</ele><time>2012-06-19T15:44:08Z</time></trkpt>
<trkpt lat="48.18646557" lon="11.60732824"><ele>496.658325</ele><time>2012-06-19T15:44:19Z</time></trkpt>
<trkpt lat="48.18656531" lon="11.60645116"><ele>497.619629</ele><time>2012-06-19T15:44:29Z</time></trkpt>
<trkpt lat="48.18658979" lon="11.60624907"><ele>498.100342</ele><time>2012-06-19T15:44:34Z</time></trkpt>
<trkpt lat="48.18659431" lon="11.60621295"><ele>498.580933</ele><time>2012-06-19T15:44:42Z</time></trkpt>
<trkpt lat="48.18661787" lon="11.60605101"><ele>500.50354</ele><time>2012-06-19T15:44:55Z</time></trkpt>
<trkpt lat="48.18687217" lon="11.60368413"><ele>498.580933</ele><time>2012-06-19T15:45:19Z</time></trkpt>
<trkpt lat="48.18696002" lon="11.60286807"><ele>498.580933</ele><time>2012-06-19T15:45:28Z</time></trkpt>
<trkpt lat="48.18700972" lon="11.60268417"><ele>498.100342</ele><time>2012-06-19T15:45:33Z</time></trkpt>
<trkpt lat="48.18725682" lon="11.60015216"><ele>497.619629</ele><time>2012-06-19T15:46:01Z</time></trkpt>
<trkpt lat="48.18737190" lon="11.59915170"><ele>498.100342</ele><time>2012-06-19T15:46:10Z</time></trkpt>
<trkpt lat="48.18754222" lon="11.59755369"><ele>498.580933</ele><time>2012-06-19T15:46:25Z</time></trkpt>
<trkpt lat="48.18766787" lon="11.59653210"><ele>500.022949</ele><time>2012-06-19T15:46:35Z</time></trkpt>
<trkpt lat="48.18775554" lon="11.59567203"><ele>500.022949</ele><time>2012-06-19T15:46:43Z</time></trkpt>
<trkpt lat="48.18784657" lon="11.59481071"><ele>500.984131</ele><time>2012-06-19T15:46:50Z</time></trkpt>
<trkpt lat="48.18797406" lon="11.59344270"><ele>501.464844</ele><time>2012-06-19T15:47:01Z</time></trkpt>
<trkpt lat="48.18804673" lon="11.59205667"><ele>502.426147</ele><time>2012-06-19T15:47:13Z</time></trkpt>
<trkpt lat="48.18805302" lon="11.59138846"><ele>502.906738</ele><time>2012-06-19T15:47:20Z</time></trkpt>
<trkpt lat="48.18804639" lon="11.59099342"><ele>502.906738</ele><time>2012-06-19T15:47:26Z</time></trkpt>
<trkpt lat="48.18804715" lon="11.59066217"><ele>503.387451</ele><time>2012-06-19T15:47:34Z</time></trkpt>
<trkpt lat="48.18806483" lon="11.59042982"><ele>504.348877</ele><time>2012-06-19T15:47:41Z</time></trkpt>
<trkpt lat="48.18805536" lon="11.58972499"><ele>502.426147</ele><time>2012-06-19T15:47:50Z</time></trkpt>
<trkpt lat="48.18802862" lon="11.58870122"><ele>502.426147</ele><time>2012-06-19T15:48:00Z</time></trkpt>
<trkpt lat="48.18803198" lon="11.58836050"><ele>501.945557</ele><time>2012-06-19T15:48:05Z</time></trkpt>
<trkpt lat="48.18803240" lon="11.58785482"><ele>501.464844</ele><time>2012-06-19T15:48:12Z</time></trkpt>
<trkpt lat="48.18804790" lon="11.58550026"><ele>502.906738</ele><time>2012-06-19T15:48:51Z</time></trkpt>
<trkpt lat="48.18801312" lon="11.58491168"><ele>502.906738</ele><time>2012-06-19T15:48:59Z</time></trkpt>
<trkpt lat="48.18802871" lon="11.58463575"><ele>502.426147</ele><time>2012-06-19T15:49:06Z</time></trkpt>
<trkpt lat="48.18845895" lon="11.58454238"><ele>501.464844</ele><time>2012-06-19T15:49:18Z</time></trkpt>
<trkpt lat="48.18894150" lon="11.58451203"><ele>502.426147</ele><time>2012-06-19T15:49:26Z</time></trkpt>
<trkpt lat="48.18991749" lon="11.58441438"><ele>503.387451</ele><time>2012-06-19T15:49:41Z</time></trkpt>
<trkpt lat="48.19127854" lon="11.58433735"><ele>501.464844</ele><time>2012-06-19T15:50:00Z</time></trkpt>
<trkpt lat="48.19154022" lon="11.58435864"><ele>500.984131</ele><time>2012-06-19T15:50:06Z</time></trkpt>
<trkpt lat="48.19176821" lon="11.58448328"><ele>501.945557</ele><time>2012-06-19T15:50:13Z</time></trkpt>
<trkpt lat="48.19193937" lon="11.58475058"><ele>501.945557</ele><time>2012-06-19T15:50:19Z</time></trkpt>
<trkpt lat="48.19216057" lon="11.58512341"><ele>501.464844</ele><time>2012-06-19T15:50:26Z</time></trkpt>
<trkpt lat="48.19220575" lon="11.58525333"><ele>500.50354</ele><time>2012-06-19T15:50:28Z</time></trkpt>
<trkpt lat="48.19253256" lon="11.58578206"><ele>500.984131</ele><time>2012-06-19T15:50:37Z</time></trkpt>
<trkpt lat="48.19260372" lon="11.58620736"><ele>500.022949</ele><time>2012-06-19T15:50:43Z</time></trkpt>
<trkpt lat="48.19260657" lon="11.58727060"><ele>500.984131</ele><time>2012-06-19T15:50:54Z</time></trkpt>
<trkpt lat="48.19262702" lon="11.58854507"><ele>500.022949</ele><time>2012-06-19T15:51:06Z</time></trkpt>
<trkpt lat="48.19263733" lon="11.58991165"><ele>499.542236</ele><time>2012-06-19T15:51:19Z</time></trkpt>
<trkpt lat="48.19262082" lon="11.59013403"><ele>499.061523</ele><time>2012-06-19T15:51:23Z</time></trkpt>
<trkpt lat="48.19261990" lon="11.59013260"><ele>501.945557</ele><time>2012-06-19T15:51:53Z</time></trkpt>
<trkpt lat="48.19263213" lon="11.59009974"><ele>506.271484</ele><time>2012-06-19T15:52:16Z</time></trkpt>
<trkpt lat="48.19278477" lon="11.58810259"><ele>504.348877</ele><time>2012-06-19T15:53:00Z</time></trkpt>
<trkpt lat="48.19274596" lon="11.58703499"><ele>505.310181</ele><time>2012-06-19T15:53:10Z</time></trkpt>
<trkpt lat="48.19272961" lon="11.58567293"><ele>504.348877</ele><time>2012-06-19T15:53:23Z</time></trkpt>
<trkpt lat="48.19272081" lon="11.58489416"><ele>504.829468</ele><time>2012-06-19T15:53:31Z</time></trkpt>
<trkpt lat="48.19272534" lon="11.58432797"><ele>504.829468</ele><time>2012-06-19T15:53:38Z</time></trkpt>
<trkpt lat="48.19274085" lon="11.58423535"><ele>504.348877</ele><time>2012-06-19T15:53:40Z</time></trkpt>
<trkpt lat="48.19291980" lon="11.58418430"><ele>502.906738</ele><time>2012-06-19T15:53:45Z</time></trkpt>
<trkpt lat="48.19328357" lon="11.58417139"><ele>504.348877</ele><time>2012-06-19T15:53:51Z</time></trkpt>
<trkpt lat="48.19407064" lon="11.58419855"><ele>503.387451</ele><time>2012-06-19T15:54:02Z</time></trkpt>
<trkpt lat="48.19493540" lon="11.58432252"><ele>503.387451</ele><time>2012-06-19T15:54:15Z</time></trkpt>
<trkpt lat="48.19542984" lon="11.58441950"><ele>502.426147</ele><time>2012-06-19T15:54:22Z</time></trkpt>
<trkpt lat="48.19596679" lon="11.58453290"><ele>502.426147</ele><time>2012-06-19T15:54:30Z</time></trkpt>
<trkpt lat="48.19652502" lon="11.58463307"><ele>502.906738</ele><time>2012-06-19T15:54:38Z</time></trkpt>
<trkpt lat="48.19727554" lon="11.58474136"><ele>503.387451</ele><time>2012-06-19T15:54:48Z</time></trkpt>
<trkpt lat="48.19814986" lon="11.58489726"><ele>504.348877</ele><time>2012-06-19T15:55:00Z</time></trkpt>
<trkpt lat="48.19836686" lon="11.58498687"><ele>503.868164</ele><time>2012-06-19T15:55:04Z</time></trkpt>
<trkpt lat="48.19879878" lon="11.58505040"><ele>502.906738</ele><time>2012-06-19T15:55:11Z</time></trkpt>
<trkpt lat="48.19983294" lon="11.58527127"><ele>501.464844</ele><time>2012-06-19T15:55:24Z</time></trkpt>
<trkpt lat="48.20092510" lon="11.58549783"><ele>500.984131</ele><time>2012-06-19T15:55:38Z</time></trkpt>
<trkpt lat="48.20114966" lon="11.58554829"><ele>500.984131</ele><time>2012-06-19T15:55:41Z</time></trkpt>
<trkpt lat="48.20168836" lon="11.58561551"><ele>501.464844</ele><time>2012-06-19T15:55:48Z</time></trkpt>
<trkpt lat="48.20229052" lon="11.58573520"><ele>503.387451</ele><time>2012-06-19T15:55:57Z</time></trkpt>
<trkpt lat="48.20233595" lon="11.58574979"><ele>503.387451</ele><time>2012-06-19T15:55:58Z</time></trkpt>
<trkpt lat="48.20287750" lon="11.58586579"><ele>502.906738</ele><time>2012-06-19T15:56:09Z</time></trkpt>
<trkpt lat="48.20324387" lon="11.58595338"><ele>502.906738</ele><time>2012-06-19T15:56:15Z</time></trkpt>
<trkpt lat="48.20404720" lon="11.58610267"><ele>502.426147</ele><time>2012-06-19T15:56:23Z</time></trkpt>
<trkpt lat="48.20516425" lon="11.58632881"><ele>500.50354</ele><time>2012-06-19T15:56:35Z</time></trkpt>
<trkpt lat="48.20573246" lon="11.58645211"><ele>498.580933</ele><time>2012-06-19T15:56:52Z</time></trkpt>
<trkpt lat="48.20607042" lon="11.58650475"><ele>501.945557</ele><time>2012-06-19T15:56:58Z</time></trkpt>
<trkpt lat="48.20677768" lon="11.58667079"><ele>501.945557</ele><time>2012-06-19T15:57:08Z</time></trkpt>
<trkpt lat="48.20759232" lon="11.58683231"><ele>498.580933</ele><time>2012-06-19T15:57:19Z</time></trkpt>
<trkpt lat="48.20864459" lon="11.58702283"><ele>500.50354</ele><time>2012-06-19T15:57:32Z</time></trkpt>
<trkpt lat="48.20982954" lon="11.58723548"><ele>499.542236</ele><time>2012-06-19T15:57:47Z</time></trkpt>
<trkpt lat="48.21044477" lon="11.58738057"><ele>498.100342</ele><time>2012-06-19T15:57:56Z</time></trkpt>
<trkpt lat="48.21113024" lon="11.58753974"><ele>498.580933</ele><time>2012-06-19T15:58:06Z</time></trkpt>
<trkpt lat="48.21197128" lon="11.58773957"><ele>498.100342</ele><time>2012-06-19T15:58:17Z</time></trkpt>
<trkpt lat="48.21301466" lon="11.58792640"><ele>497.138916</ele><time>2012-06-19T15:58:30Z</time></trkpt>
<trkpt lat="48.21403197" lon="11.58804568"><ele>498.100342</ele><time>2012-06-19T15:58:42Z</time></trkpt>
<trkpt lat="48.21520301" lon="11.58803285"><ele>498.100342</ele><time>2012-06-19T15:58:55Z</time></trkpt>
<trkpt lat="48.21662307" lon="11.58801332"><ele>497.619629</ele><time>2012-06-19T15:59:10Z</time></trkpt>
<trkpt lat="48.21801363" lon="11.58801047"><ele>496.658325</ele><time>2012-06-19T15:59:25Z</time></trkpt>
<trkpt lat="48.21935582" lon="11.58799765"><ele>496.177734</ele><time>2012-06-19T15:59:40Z</time></trkpt>
<trkpt lat="48.21989427" lon="11.58797946"><ele>496.177734</ele><time>2012-06-19T15:59:48Z</time></trkpt>
<trkpt lat="48.22170912" lon="11.58790285"><ele>500.50354</ele><time>2012-06-19T16:00:45Z</time></trkpt>
<trkpt lat="48.22234648" lon="11.58784208"><ele>500.022949</ele><time>2012-06-19T16:00:53Z</time></trkpt>
<trkpt lat="48.22261470" lon="11.58804685"><ele>499.542236</ele><time>2012-06-19T16:00:57Z</time></trkpt>
<trkpt lat="48.22273130" lon="11.58819772"><ele>499.061523</ele><time>2012-06-19T16:00:59Z</time></trkpt>
<trkpt lat="48.22322289" lon="11.58896433"><ele>498.580933</ele><time>2012-06-19T16:01:08Z</time></trkpt>
<trkpt lat="48.22388439" lon="11.59017443"><ele>498.580933</ele><time>2012-06-19T16:01:21Z</time></trkpt>
<trkpt lat="48.22446115" lon="11.59118361"><ele>498.580933</ele><time>2012-06-19T16:01:32Z</time></trkpt>
<trkpt lat="48.22467531" lon="11.59154017"><ele>497.619629</ele><time>2012-06-19T16:01:36Z</time></trkpt>
<trkpt lat="48.22513254" lon="11.59199380"><ele>497.138916</ele><time>2012-06-19T16:01:43Z</time></trkpt>
<trkpt lat="48.22527177" lon="11.59210092"><ele>496.177734</ele><time>2012-06-19T16:01:45Z</time></trkpt>
<trkpt lat="48.22545324" lon="11.59238004"><ele>494.735596</ele><time>2012-06-19T16:01:52Z</time></trkpt>
<trkpt lat="48.22564526" lon="11.59293090"><ele>495.216187</ele><time>2012-06-19T16:01:59Z</time></trkpt>
<trkpt lat="48.22610593" lon="11.59372752"><ele>493.293579</ele><time>2012-06-19T16:02:08Z</time></trkpt>
<trkpt lat="48.22631506" lon="11.59410638"><ele>494.255005</ele><time>2012-06-19T16:02:12Z</time></trkpt>
<trkpt lat="48.22683214" lon="11.59532553"><ele>495.216187</ele><time>2012-06-19T16:02:24Z</time></trkpt>
<trkpt lat="48.22725115" lon="11.59616564"><ele>497.619629</ele><time>2012-06-19T16:02:33Z</time></trkpt>
<trkpt lat="48.22781056" lon="11.59691859"><ele>499.542236</ele><time>2012-06-19T16:02:43Z</time></trkpt>
<trkpt lat="48.22846913" lon="11.59747909"><ele>500.50354</ele><time>2012-06-19T16:02:53Z</time></trkpt>
<trkpt lat="48.22910540" lon="11.59783239"><ele>500.50354</ele><time>2012-06-19T16:03:02Z</time></trkpt>
<trkpt lat="48.22971828" lon="11.59810119"><ele>497.138916</ele><time>2012-06-19T16:03:10Z</time></trkpt>
<trkpt lat="48.22993772" lon="11.59815827"><ele>496.658325</ele><time>2012-06-19T16:03:13Z</time></trkpt>
<trkpt lat="48.23023427" lon="11.59831904"><ele>495.696899</ele><time>2012-06-19T16:03:18Z</time></trkpt>
<trkpt lat="48.23050777" lon="11.59850151"><ele>494.255005</ele><time>2012-06-19T16:03:23Z</time></trkpt>
<trkpt lat="48.23074574" lon="11.59845013"><ele>493.293579</ele><time>2012-06-19T16:03:28Z</time></trkpt>
<trkpt lat="48.23086501" lon="11.59845759"><ele>493.774292</ele><time>2012-06-19T16:03:30Z</time></trkpt>
<trkpt lat="48.23114681" lon="11.59852398"><ele>493.293579</ele><time>2012-06-19T16:03:34Z</time></trkpt>
<trkpt lat="48.23144420" lon="11.59867896"><ele>492.812988</ele><time>2012-06-19T16:03:38Z</time></trkpt>
<trkpt lat="48.23160958" lon="11.59866538"><ele>492.812988</ele><time>2012-06-19T16:03:40Z</time></trkpt>
<trkpt lat="48.23242463" lon="11.59883386"><ele>493.293579</ele><time>2012-06-19T16:03:50Z</time></trkpt>
<trkpt lat="48.23349265" lon="11.59909043"><ele>491.851685</ele><time>2012-06-19T16:04:03Z</time></trkpt>
<trkpt lat="48.23458356" lon="11.59936770"><ele>492.332397</ele><time>2012-06-19T16:04:16Z</time></trkpt>
<trkpt lat="48.23538294" lon="11.59964573"><ele>491.851685</ele><time>2012-06-19T16:04:25Z</time></trkpt>
<trkpt lat="48.23647091" lon="11.59988184"><ele>490.890381</ele><time>2012-06-19T16:04:37Z</time></trkpt>
<trkpt lat="48.23721665" lon="11.60008636"><ele>489.929077</ele><time>2012-06-19T16:04:45Z</time></trkpt>
<trkpt lat="48.23854443" lon="11.60042625"><ele>491.370972</ele><time>2012-06-19T16:04:59Z</time></trkpt>
<trkpt lat="48.23973826" lon="11.60073504"><ele>492.332397</ele><time>2012-06-19T16:05:12Z</time></trkpt>
<trkpt lat="48.24082154" lon="11.60102664"><ele>492.332397</ele><time>2012-06-19T16:05:24Z</time></trkpt>
<trkpt lat="48.24189308" lon="11.60132110"><ele>491.370972</ele><time>2012-06-19T16:05:36Z</time></trkpt>
<trkpt lat="48.24311709" lon="11.60166132"><ele>489.929077</ele><time>2012-06-19T16:05:50Z</time></trkpt>
<trkpt lat="48.24408780" lon="11.60194840"><ele>489.929077</ele><time>2012-06-19T16:06:01Z</time></trkpt>
<trkpt lat="48.24456833" lon="11.60207497"><ele>489.929077</ele><time>2012-06-19T16:06:07Z</time></trkpt>
<trkpt lat="48.24478224" lon="11.60205829"><ele>489.448364</ele><time>2012-06-19T16:06:10Z</time></trkpt>
<trkpt lat="48.24505348" lon="11.60225887"><ele>488.967773</ele><time>2012-06-19T16:06:14Z</time></trkpt>
<trkpt lat="48.24533796" lon="11.60233858"><ele>487.525635</ele><time>2012-06-19T16:06:18Z</time></trkpt>
<trkpt lat="48.24592654" lon="11.60237907"><ele>488.487183</ele><time>2012-06-19T16:06:25Z</time></trkpt>
<trkpt lat="48.24609317" lon="11.60240488"><ele>488.00647</ele><time>2012-06-19T16:06:27Z</time></trkpt>
<trkpt lat="48.24726261" lon="11.60275416"><ele>485.603027</ele><time>2012-06-19T16:06:41Z</time></trkpt>
<trkpt lat="48.24879885" lon="11.60285055"><ele>490.40979</ele><time>2012-06-19T16:07:15Z</time></trkpt>
<trkpt lat="48.24877974" lon="11.60284166"><ele>489.929077</ele><time>2012-06-19T16:07:21Z</time></trkpt>
<trkpt lat="48.24918274" lon="11.60281719"><ele>487.525635</ele><time>2012-06-19T16:07:44Z</time></trkpt>
<trkpt lat="48.24891142" lon="11.60284820"><ele>489.448364</ele><time>2012-06-19T16:07:59Z</time></trkpt>
<trkpt lat="48.24889239" lon="11.60290461"><ele>488.967773</ele><time>2012-06-19T16:08:02Z</time></trkpt>
<trkpt lat="48.24928324" lon="11.60266707"><ele>487.045044</ele><time>2012-06-19T16:08:13Z</time></trkpt>
<trkpt lat="48.24971457" lon="11.60245685"><ele>485.603027</ele><time>2012-06-19T16:08:19Z</time></trkpt>
<trkpt lat="48.25057405" lon="11.60200180"><ele>485.122437</ele><time>2012-06-19T16:08:30Z</time></trkpt>
<trkpt lat="48.25123421" lon="11.60169225"><ele>482.719238</ele><time>2012-06-19T16:08:38Z</time></trkpt>
<trkpt lat="48.25218556" lon="11.60126737"><ele>482.238525</ele><time>2012-06-19T16:08:49Z</time></trkpt>
<trkpt lat="48.25323245" lon="11.60078240"><ele>482.719238</ele><time>2012-06-19T16:09:01Z</time></trkpt>
<trkpt lat="48.25431397" lon="11.60027663"><ele>481.277222</ele><time>2012-06-19T16:09:13Z</time></trkpt>
<trkpt lat="48.25557729" lon="11.59966450"><ele>480.796631</ele><time>2012-06-19T16:09:27Z</time></trkpt>
<trkpt lat="48.25679041" lon="11.59907777"><ele>479.835083</ele><time>2012-06-19T16:09:41Z</time></trkpt>
<trkpt lat="48.25770931" lon="11.59864074"><ele>479.835083</ele><time>2012-06-19T16:09:52Z</time></trkpt>
<trkpt lat="48.25846310" lon="11.59830848"><ele>478.873901</ele><time>2012-06-19T16:10:01Z</time></trkpt>
<trkpt lat="48.26012657" lon="11.59751781"><ele>479.354492</ele><time>2012-06-19T16:10:21Z</time></trkpt>
<trkpt lat="48.26101514" lon="11.59708656"><ele>479.354492</ele><time>2012-06-19T16:10:32Z</time></trkpt>
<trkpt lat="48.26181854" lon="11.59671675"><ele>479.354492</ele><time>2012-06-19T16:10:42Z</time></trkpt>
<trkpt lat="48.26272697" lon="11.59629079"><ele>479.354492</ele><time>2012-06-19T16:10:53Z</time></trkpt>
<trkpt lat="48.26364404" lon="11.59585761"><ele>478.873901</ele><time>2012-06-19T16:11:04Z</time></trkpt>
<trkpt lat="48.26450435" lon="11.59548948"><ele>478.873901</ele><time>2012-06-19T16:11:15Z</time></trkpt>
<trkpt lat="48.26457962" lon="11.59546928"><ele>478.873901</ele><time>2012-06-19T16:11:16Z</time></trkpt>
<trkpt lat="48.26485178" lon="11.59535637"><ele>478.873901</ele><time>2012-06-19T16:11:20Z</time></trkpt>
<trkpt lat="48.26559358" lon="11.59495077"><ele>478.873901</ele><time>2012-06-19T16:12:22Z</time></trkpt>
<trkpt lat="48.26617864" lon="11.59467434"><ele>478.873901</ele><time>2012-06-19T16:12:31Z</time></trkpt>
<trkpt lat="48.26697241" lon="11.59428609"><ele>477.912476</ele><time>2012-06-19T16:12:42Z</time></trkpt>
<trkpt lat="48.26808460" lon="11.59374805"><ele>478.393188</ele><time>2012-06-19T16:12:57Z</time></trkpt>
<trkpt lat="48.26890955" lon="11.59335779"><ele>478.393188</ele><time>2012-06-19T16:13:08Z</time></trkpt>
<trkpt lat="48.27020279" lon="11.59276620"><ele>477.431885</ele><time>2012-06-19T16:13:25Z</time></trkpt>
<trkpt lat="48.27117836" lon="11.59234945"><ele>476.951294</ele><time>2012-06-19T16:13:38Z</time></trkpt>
<trkpt lat="48.27170776" lon="11.59209246"><ele>477.912476</ele><time>2012-06-19T16:13:46Z</time></trkpt>
<trkpt lat="48.27192385" lon="11.59194921"><ele>478.873901</ele><time>2012-06-19T16:14:15Z</time></trkpt>
<trkpt lat="48.27187439" lon="11.59174251"><ele>478.873901</ele><time>2012-06-19T16:14:22Z</time></trkpt>
<trkpt lat="48.27183148" lon="11.59143096"><ele>477.912476</ele><time>2012-06-19T16:14:29Z</time></trkpt>
<trkpt lat="48.27176786" lon="11.59109761"><ele>476.951294</ele><time>2012-06-19T16:14:35Z</time></trkpt>
<trkpt lat="48.27158438" lon="11.59044759"><ele>476.470581</ele><time>2012-06-19T16:14:46Z</time></trkpt>
<trkpt lat="48.27139696" lon="11.58981157"><ele>474.547974</ele><time>2012-06-19T16:14:56Z</time></trkpt>
<trkpt lat="48.27110670" lon="11.58895235"><ele>475.028687</ele><time>2012-06-19T16:15:11Z</time></trkpt>
<trkpt lat="48.27090804" lon="11.58832463"><ele>476.470581</ele><time>2012-06-19T16:15:22Z</time></trkpt>
<trkpt lat="48.27078575" lon="11.58792539"><ele>476.951294</ele><time>2012-06-19T16:15:30Z</time></trkpt>
<trkpt lat="48.27055609" lon="11.58668119"><ele>479.835083</ele><time>2012-06-19T16:15:51Z</time></trkpt>
<trkpt lat="48.27047244" lon="11.58559305"><ele>479.354492</ele><time>2012-06-19T16:16:03Z</time></trkpt>
<trkpt lat="48.27047420" lon="11.58519667"><ele>479.354492</ele><time>2012-06-19T16:16:08Z</time></trkpt>
<trkpt lat="48.27062398" lon="11.58503163"><ele>477.912476</ele><time>2012-06-19T16:16:13Z</time></trkpt>
<trkpt lat="48.27096865" lon="11.58481495"><ele>477.912476</ele><time>2012-06-19T16:16:19Z</time></trkpt>
<trkpt lat="48.27172033" lon="11.58435152"><ele>476.951294</ele><time>2012-06-19T16:16:31Z</time></trkpt>
<trkpt lat="48.27235308" lon="11.58395313"><ele>477.431885</ele><time>2012-06-19T16:16:42Z</time></trkpt>
<trkpt lat="48.27328473" lon="11.58338483"><ele>476.951294</ele><time>2012-06-19T16:16:58Z</time></trkpt>
<trkpt lat="48.27372864" lon="11.58309541"><ele>475.989868</ele><time>2012-06-19T16:17:06Z</time></trkpt>
<trkpt lat="48.27439114" lon="11.58259459"><ele>475.989868</ele><time>2012-06-19T16:17:17Z</time></trkpt>
<trkpt lat="48.27506321" lon="11.58193393"><ele>475.509277</ele><time>2012-06-19T16:17:29Z</time></trkpt>
<trkpt lat="48.27542463" lon="11.58143688"><ele>476.951294</ele><time>2012-06-19T16:17:37Z</time></trkpt>
<trkpt lat="48.27575329" lon="11.58082617"><ele>475.509277</ele><time>2012-06-19T16:17:46Z</time></trkpt>
<trkpt lat="48.27615922" lon="11.58013408"><ele>472.144653</ele><time>2012-06-19T16:17:55Z</time></trkpt>
<trkpt lat="48.27676230" lon="11.57906153"><ele>472.144653</ele><time>2012-06-19T16:18:08Z</time></trkpt>
<trkpt lat="48.27711350" lon="11.57839903"><ele>472.625366</ele><time>2012-06-19T16:18:16Z</time></trkpt>
<trkpt lat="48.27753008" lon="11.57762756"><ele>473.58667</ele><time>2012-06-19T16:18:25Z</time></trkpt>
<trkpt lat="48.27824741" lon="11.57634311"><ele>474.067261</ele><time>2012-06-19T16:18:40Z</time></trkpt>
<trkpt lat="48.27872652" lon="11.57550811"><ele>474.067261</ele><time>2012-06-19T16:18:50Z</time></trkpt>
<trkpt lat="48.27940646" lon="11.57429047"><ele>474.547974</ele><time>2012-06-19T16:19:04Z</time></trkpt>
<trkpt lat="48.27968943" lon="11.57378051"><ele>474.067261</ele><time>2012-06-19T16:19:10Z</time></trkpt>
<trkpt lat="48.28002001" lon="11.57360148"><ele>473.106079</ele><time>2012-06-19T16:19:15Z</time></trkpt>
<trkpt lat="48.28025370" lon="11.57354901"><ele>473.106079</ele><time>2012-06-19T16:19:19Z</time></trkpt>
<trkpt lat="48.28063357" lon="11.57357113"><ele>473.106079</ele><time>2012-06-19T16:19:29Z</time></trkpt>
<trkpt lat="48.28092534" lon="11.57370960"><ele>472.625366</ele><time>2012-06-19T16:19:38Z</time></trkpt>
<trkpt lat="48.28112265" lon="11.57383776"><ele>471.66394</ele><time>2012-06-19T16:19:44Z</time></trkpt>
<trkpt lat="48.28125534" lon="11.57407992"><ele>472.144653</ele><time>2012-06-19T16:19:49Z</time></trkpt>
<trkpt lat="48.28144921" lon="11.57485072"><ele>472.625366</ele><time>2012-06-19T16:19:57Z</time></trkpt>
<trkpt lat="48.28181701" lon="11.57613072"><ele>473.58667</ele><time>2012-06-19T16:20:10Z</time></trkpt>
<trkpt lat="48.28217173" lon="11.57733746"><ele>475.028687</ele><time>2012-06-19T16:20:22Z</time></trkpt>
<trkpt lat="48.28315191" lon="11.57999737"><ele>475.028687</ele><time>2012-06-19T16:20:51Z</time></trkpt>
<trkpt lat="48.28385825" lon="11.58073674"><ele>475.028687</ele><time>2012-06-19T16:21:02Z</time></trkpt>
<trkpt lat="48.28459787" lon="11.58145507"><ele>473.106079</ele><time>2012-06-19T16:21:14Z</time></trkpt>
<trkpt lat="48.28523573" lon="11.58203401"><ele>475.028687</ele><time>2012-06-19T16:21:24Z</time></trkpt>
<trkpt lat="48.28560546" lon="11.58257271"><ele>474.067261</ele><time>2012-06-19T16:21:30Z</time></trkpt>
<trkpt lat="48.28591014" lon="11.58314930"><ele>473.58667</ele><time>2012-06-19T16:21:35Z</time></trkpt>
<trkpt lat="48.28626093" lon="11.58430349"><ele>473.106079</ele><time>2012-06-19T16:21:44Z</time></trkpt>
<trkpt lat="48.28625808" lon="11.58482736"><ele>473.106079</ele><time>2012-06-19T16:21:49Z</time></trkpt>
<trkpt lat="48.28635723" lon="11.58518141"><ele>472.625366</ele><time>2012-06-19T16:21:53Z</time></trkpt>
<trkpt lat="48.28659771" lon="11.58621138"><ele>472.625366</ele><time>2012-06-19T16:22:03Z</time></trkpt>
<trkpt lat="48.28680273" lon="11.58700137"><ele>471.18335</ele><time>2012-06-19T16:22:12Z</time></trkpt>
<trkpt lat="48.28698630" lon="11.58765734"><ele>470.702637</ele><time>2012-06-19T16:22:22Z</time></trkpt>
<trkpt lat="48.28704245" lon="11.58796144"><ele>471.66394</ele><time>2012-06-19T16:22:28Z</time></trkpt>
<trkpt lat="48.28699057" lon="11.58778475"><ele>471.66394</ele><time>2012-06-19T16:22:41Z</time></trkpt>
<trkpt lat="48.28693148" lon="11.58756246"><ele>471.18335</ele><time>2012-06-19T16:22:53Z</time></trkpt>
<trkpt lat="48.28684732" lon="11.58726591"><ele>473.106079</ele><time>2012-06-19T16:23:08Z</time></trkpt>
<trkpt lat="48.28676485" lon="11.58695712"><ele>473.106079</ele><time>2012-06-19T16:23:24Z</time></trkpt>
<trkpt lat="48.28670056" lon="11.58680021"><ele>472.144653</ele><time>2012-06-19T16:23:35Z</time></trkpt>
<trkpt lat="48.28662973" lon="11.58657985"><ele>472.144653</ele><time>2012-06-19T16:23:50Z</time></trkpt>
<trkpt lat="48.28660710" lon="11.58652210"><ele>471.18335</ele><time>2012-06-19T16:23:57Z</time></trkpt>
<trkpt lat="48.28655681" lon="11.58634574"><ele>471.18335</ele><time>2012-06-19T16:24:05Z</time></trkpt>
<trkpt lat="48.28656276" lon="11.58630978"><ele>472.144653</ele><time>2012-06-19T16:24:10Z</time></trkpt>
<trkpt lat="48.28658061" lon="11.58629017"><ele>472.625366</ele><time>2012-06-19T16:24:12Z</time></trkpt>
<trkpt lat="48.28643351" lon="11.58558894"><ele>472.144653</ele><time>2012-06-19T16:24:24Z</time></trkpt>
<trkpt lat="48.28637341" lon="11.58534880"><ele>471.66394</ele><time>2012-06-19T16:24:27Z</time></trkpt>
<trkpt lat="48.28637676" lon="11.58481185"><ele>472.144653</ele><time>2012-06-19T16:24:34Z</time></trkpt>
<trkpt lat="48.28645388" lon="11.58460775"><ele>471.66394</ele><time>2012-06-19T16:24:37Z</time></trkpt>
<trkpt lat="48.28703600" lon="11.58374576"><ele>472.144653</ele><time>2012-06-19T16:24:51Z</time></trkpt>
<trkpt lat="48.28792071" lon="11.58272526"><ele>472.625366</ele><time>2012-06-19T16:25:07Z</time></trkpt>
<trkpt lat="48.28954462" lon="11.58076599"><ele>473.106079</ele><time>2012-06-19T16:25:46Z</time></trkpt>
<trkpt lat="48.28979256" lon="11.58042728"><ele>473.106079</ele><time>2012-06-19T16:25:54Z</time></trkpt>
<trkpt lat="48.28981485" lon="11.58039937"><ele>473.106079</ele><time>2012-06-19T16:25:55Z</time></trkpt>
<trkpt lat="48.28989247" lon="11.58035930"><ele>473.106079</ele><time>2012-06-19T16:25:57Z</time></trkpt>
<trkpt lat="48.29018525" lon="11.58011220"><ele>472.625366</ele><time>2012-06-19T16:26:03Z</time></trkpt>
<trkpt lat="48.29090358" lon="11.57942003"><ele>472.625366</ele><time>2012-06-19T16:26:16Z</time></trkpt>
<trkpt lat="48.29102327" lon="11.57931215"><ele>472.625366</ele><time>2012-06-19T16:26:18Z</time></trkpt>
<trkpt lat="48.29138244" lon="11.57919707"><ele>470.702637</ele><time>2012-06-19T16:26:24Z</time></trkpt>
<trkpt lat="48.29171847" lon="11.57912389"><ele>471.18335</ele><time>2012-06-19T16:26:35Z</time></trkpt>
<trkpt lat="48.29197177" lon="11.57909154"><ele>471.18335</ele><time>2012-06-19T16:26:40Z</time></trkpt>
<trkpt lat="48.29262069" lon="11.57898325"><ele>472.144653</ele><time>2012-06-19T16:26:51Z</time></trkpt>
<trkpt lat="48.29296930" lon="11.57890915"><ele>472.144653</ele><time>2012-06-19T16:26:59Z</time></trkpt>
<trkpt lat="48.29335252" lon="11.57879918"><ele>474.547974</ele><time>2012-06-19T16:27:11Z</time></trkpt>
<trkpt lat="48.29352150" lon="11.57876783"><ele>473.106079</ele><time>2012-06-19T16:27:20Z</time></trkpt>
<trkpt lat="48.29359526" lon="11.57872408"><ele>474.067261</ele><time>2012-06-19T16:27:47Z</time></trkpt>
<trkpt lat="48.29343558" lon="11.57877110"><ele>472.144653</ele><time>2012-06-19T16:27:55Z</time></trkpt>
<trkpt lat="48.29324800" lon="11.57875082"><ele>471.18335</ele><time>2012-06-19T16:28:07Z</time></trkpt>
<trkpt lat="48.29345210" lon="11.57860070"><ele>470.702637</ele><time>2012-06-19T16:28:14Z</time></trkpt>
<trkpt lat="48.29375787" lon="11.57835728"><ele>470.221924</ele><time>2012-06-19T16:28:21Z</time></trkpt>
<trkpt lat="48.29412365" lon="11.57780492"><ele>470.702637</ele><time>2012-06-19T16:28:32Z</time></trkpt>
<trkpt lat="48.29447653" lon="11.57738591"><ele>471.18335</ele><time>2012-06-19T16:28:43Z</time></trkpt>
<trkpt lat="48.29451819" lon="11.57752178"><ele>470.702637</ele><time>2012-06-19T16:28:48Z</time></trkpt>
<trkpt lat="48.29452691" lon="11.57779394"><ele>470.221924</ele><time>2012-06-19T16:28:55Z</time></trkpt>
<trkpt lat="48.29458541" lon="11.57814640"><ele>473.106079</ele><time>2012-06-19T16:29:02Z</time></trkpt>
<trkpt lat="48.29465121" lon="11.57848787"><ele>473.58667</ele><time>2012-06-19T16:29:12Z</time></trkpt>
<trkpt lat="48.29467476" lon="11.57858611"><ele>474.067261</ele><time>2012-06-19T16:29:18Z</time></trkpt>
<trkpt lat="48.29471525" lon="11.57861033"><ele>477.912476</ele><time>2012-06-19T16:29:52Z</time></trkpt>
<trkpt lat="48.29485129" lon="11.57853825"><ele>476.951294</ele><time>2012-06-19T16:29:59Z</time></trkpt>
<trkpt lat="48.29489026" lon="11.57852199"><ele>479.354492</ele><time>2012-06-19T16:30:24Z</time></trkpt>
<trkpt lat="48.29545587" lon="11.57824304"><ele>478.393188</ele><time>2012-06-19T16:30:39Z</time></trkpt>
<trkpt lat="48.29603724" lon="11.57792503"><ele>476.951294</ele><time>2012-06-19T16:30:49Z</time></trkpt>
<trkpt lat="48.29677703" lon="11.57761004"><ele>474.067261</ele><time>2012-06-19T16:31:02Z</time></trkpt>
<trkpt lat="48.29694157" lon="11.57755958"><ele>474.067261</ele><time>2012-06-19T16:31:05Z</time></trkpt>
<trkpt lat="48.29700435" lon="11.57711861"><ele>474.067261</ele><time>2012-06-19T16:31:12Z</time></trkpt>
<trkpt lat="48.29712622" lon="11.57697435"><ele>475.989868</ele><time>2012-06-19T16:31:18Z</time></trkpt>
<trkpt lat="48.29724164" lon="11.57693613"><ele>475.989868</ele><time>2012-06-19T16:31:20Z</time></trkpt>
<trkpt lat="48.29750139" lon="11.57685877"><ele>475.028687</ele><time>2012-06-19T16:31:24Z</time></trkpt>
<trkpt lat="48.29782762" lon="11.57685894"><ele>473.58667</ele><time>2012-06-19T16:31:28Z</time></trkpt>
<trkpt lat="48.29836406" lon="11.57679389"><ele>473.58667</ele><time>2012-06-19T16:31:34Z</time></trkpt>
<trkpt lat="48.29894040" lon="11.57657571"><ele>473.106079</ele><time>2012-06-19T16:31:41Z</time></trkpt>
<trkpt lat="48.29967147" lon="11.57623356"><ele>472.144653</ele><time>2012-06-19T16:31:51Z</time></trkpt>
<trkpt lat="48.30000029" lon="11.57595671"><ele>472.144653</ele><time>2012-06-19T16:31:56Z</time></trkpt>
<trkpt lat="48.30058585" lon="11.57564063"><ele>472.625366</ele><time>2012-06-19T16:32:05Z</time></trkpt>
<trkpt lat="48.30071107" lon="11.57556393"><ele>472.144653</ele><time>2012-06-19T16:32:07Z</time></trkpt>
<trkpt lat="48.30127878" lon="11.57493562"><ele>471.66394</ele><time>2012-06-19T16:32:18Z</time></trkpt>
<trkpt lat="48.30140510" lon="11.57465525"><ele>471.18335</ele><time>2012-06-19T16:32:21Z</time></trkpt>
<trkpt lat="48.30151917" lon="11.57412794"><ele>471.18335</ele><time>2012-06-19T16:32:26Z</time></trkpt>
<trkpt lat="48.30125322" lon="11.57295054"><ele>470.221924</ele><time>2012-06-19T16:32:36Z</time></trkpt>
<trkpt lat="48.30101299" lon="11.57191160"><ele>474.547974</ele><time>2012-06-19T16:32:44Z</time></trkpt>
<trkpt lat="48.30079800" lon="11.57038073"><ele>476.951294</ele><time>2012-06-19T16:32:57Z</time></trkpt>
<trkpt lat="48.30049507" lon="11.56961773"><ele>475.989868</ele><time>2012-06-19T16:33:05Z</time></trkpt>
<trkpt lat="48.30048284" lon="11.56956048"><ele>475.989868</ele><time>2012-06-19T16:33:06Z</time></trkpt>
<trkpt lat="48.30055039" lon="11.56939594"><ele>475.509277</ele><time>2012-06-19T16:33:10Z</time></trkpt>
<trkpt lat="48.30076899" lon="11.56916535"><ele>475.028687</ele><time>2012-06-19T16:33:18Z</time></trkpt>
<trkpt lat="48.30087301" lon="11.56884718"><ele>475.509277</ele><time>2012-06-19T16:33:22Z</time></trkpt>
<trkpt lat="48.30091149" lon="11.56868331"><ele>476.470581</ele><time>2012-06-19T16:33:24Z</time></trkpt>
<trkpt lat="48.30110410" lon="11.56840176"><ele>478.393188</ele><time>2012-06-19T16:33:29Z</time></trkpt>
<trkpt lat="48.30143292" lon="11.56834762"><ele>479.835083</ele><time>2012-06-19T16:33:35Z</time></trkpt>
<trkpt lat="48.30214798" lon="11.56816154"><ele>478.393188</ele><time>2012-06-19T16:33:46Z</time></trkpt>
<trkpt lat="48.30234571" lon="11.56804319"><ele>478.393188</ele><time>2012-06-19T16:33:49Z</time></trkpt>
<trkpt lat="48.30285374" lon="11.56684214"><ele>479.354492</ele><time>2012-06-19T16:34:03Z</time></trkpt>
<trkpt lat="48.30301668" lon="11.56576482"><ele>482.238525</ele><time>2012-06-19T16:34:14Z</time></trkpt>
<trkpt lat="48.30312992" lon="11.56485488"><ele>485.122437</ele><time>2012-06-19T16:34:24Z</time></trkpt>
<trkpt lat="48.30320075" lon="11.56452362"><ele>485.122437</ele><time>2012-06-19T16:34:29Z</time></trkpt>
<trkpt lat="48.30437405" lon="11.56402457"><ele>490.40979</ele><time>2012-06-19T16:35:15Z</time></trkpt>
<trkpt lat="48.30463205" lon="11.56410654"><ele>490.40979</ele><time>2012-06-19T16:35:22Z</time></trkpt>
<trkpt lat="48.30465912" lon="11.56420729"><ele>489.929077</ele><time>2012-06-19T16:35:24Z</time></trkpt>
<trkpt lat="48.30470782" lon="11.56485085"><ele>488.967773</ele><time>2012-06-19T16:35:32Z</time></trkpt>
<trkpt lat="48.30484335" lon="11.56580882"><ele>488.00647</ele><time>2012-06-19T16:35:42Z</time></trkpt>
<trkpt lat="48.30506472" lon="11.56684809"><ele>487.525635</ele><time>2012-06-19T16:35:53Z</time></trkpt>
<trkpt lat="48.30545825" lon="11.56813421"><ele>487.045044</ele><time>2012-06-19T16:36:08Z</time></trkpt>
<trkpt lat="48.30571633" lon="11.56904440"><ele>486.564453</ele><time>2012-06-19T16:36:19Z</time></trkpt>
<trkpt lat="48.30581029" lon="11.56949066"><ele>486.564453</ele><time>2012-06-19T16:36:26Z</time></trkpt>
<trkpt lat="48.30569303" lon="11.56888967"><ele>486.564453</ele><time>2012-06-19T16:36:40Z</time></trkpt>
<trkpt lat="48.30546454" lon="11.56808744"><ele>487.045044</ele><time>2012-06-19T16:36:49Z</time></trkpt>
<trkpt lat="48.30519363" lon="11.56724238"><ele>487.045044</ele><time>2012-06-19T16:36:58Z</time></trkpt>
<trkpt lat="48.30490387" lon="11.56608107"><ele>486.564453</ele><time>2012-06-19T16:37:09Z</time></trkpt>
<trkpt lat="48.30473087" lon="11.56490316"><ele>487.045044</ele><time>2012-06-19T16:37:20Z</time></trkpt>
<trkpt lat="48.30467706" lon="11.56380773"><ele>487.045044</ele><time>2012-06-19T16:37:30Z</time></trkpt>
<trkpt lat="48.30456038" lon="11.56281237"><ele>488.967773</ele><time>2012-06-19T16:37:39Z</time></trkpt>
<trkpt lat="48.30446298" lon="11.56196781"><ele>489.929077</ele><time>2012-06-19T16:37:47Z</time></trkpt>
<trkpt lat="48.30455057" lon="11.56127153"><ele>491.370972</ele><time>2012-06-19T16:37:54Z</time></trkpt>
<trkpt lat="48.30480807" lon="11.56024056"><ele>493.774292</ele><time>2012-06-19T16:38:05Z</time></trkpt>
<trkpt lat="48.30494704" lon="11.55937303"><ele>495.696899</ele><time>2012-06-19T16:38:14Z</time></trkpt>
<trkpt lat="48.30502080" lon="11.55840383"><ele>498.100342</ele><time>2012-06-19T16:38:24Z</time></trkpt>
<trkpt lat="48.30508945" lon="11.55793595"><ele>498.580933</ele><time>2012-06-19T16:38:30Z</time></trkpt>
<trkpt lat="48.30519724" lon="11.55714168"><ele>499.542236</ele><time>2012-06-19T16:38:39Z</time></trkpt>
<trkpt lat="48.30521593" lon="11.55633241"><ele>500.50354</ele><time>2012-06-19T16:38:47Z</time></trkpt>
<trkpt lat="48.30512071" lon="11.55528350"><ele>500.50354</ele><time>2012-06-19T16:38:57Z</time></trkpt>
<trkpt lat="48.30505491" lon="11.55460331"><ele>500.984131</ele><time>2012-06-19T16:39:04Z</time></trkpt>
<trkpt lat="48.30504066" lon="11.55441429"><ele>501.464844</ele><time>2012-06-19T16:39:09Z</time></trkpt>
<trkpt lat="48.30503505" lon="11.55436216"><ele>501.464844</ele><time>2012-06-19T16:39:12Z</time></trkpt>
<trkpt lat="48.30507193" lon="11.55490053"><ele>501.945557</ele><time>2012-06-19T16:39:25Z</time></trkpt>
<trkpt lat="48.30513605" lon="11.55547888"><ele>501.464844</ele><time>2012-06-19T16:39:32Z</time></trkpt>
<trkpt lat="48.30520269" lon="11.55639041"><ele>500.984131</ele><time>2012-06-19T16:39:41Z</time></trkpt>
<trkpt lat="48.30516832" lon="11.55736162"><ele>500.022949</ele><time>2012-06-19T16:39:50Z</time></trkpt>
<trkpt lat="48.30499071" lon="11.55866845"><ele>497.619629</ele><time>2012-06-19T16:40:02Z</time></trkpt>
<trkpt lat="48.30488174" lon="11.55979472"><ele>496.177734</ele><time>2012-06-19T16:40:12Z</time></trkpt>
<trkpt lat="48.30470899" lon="11.56058572"><ele>494.255005</ele><time>2012-06-19T16:40:20Z</time></trkpt>
<trkpt lat="48.30469483" lon="11.56064942"><ele>493.774292</ele><time>2012-06-19T16:40:21Z</time></trkpt>
<trkpt lat="48.30480538" lon="11.56081044"><ele>494.255005</ele><time>2012-06-19T16:40:25Z</time></trkpt>
<trkpt lat="48.30490588" lon="11.56080952"><ele>494.255005</ele><time>2012-06-19T16:40:27Z</time></trkpt>
<trkpt lat="48.30546462" lon="11.56075646"><ele>497.138916</ele><time>2012-06-19T16:40:37Z</time></trkpt>
<trkpt lat="48.30592068" lon="11.56064951"><ele>498.100342</ele><time>2012-06-19T16:40:45Z</time></trkpt>
<trkpt lat="48.30656332" lon="11.56049754"><ele>497.619629</ele><time>2012-06-19T16:40:55Z</time></trkpt>
<trkpt lat="48.30719741" lon="11.56025824"><ele>495.216187</ele><time>2012-06-19T16:41:03Z</time></trkpt>
<trkpt lat="48.30781608" lon="11.56019596"><ele>493.293579</ele><time>2012-06-19T16:41:10Z</time></trkpt>
<trkpt lat="48.30866114" lon="11.56008407"><ele>493.293579</ele><time>2012-06-19T16:41:20Z</time></trkpt>
<trkpt lat="48.30942331" lon="11.55991735"><ele>495.696899</ele><time>2012-06-19T16:41:30Z</time></trkpt>
<trkpt lat="48.30991432" lon="11.55989036"><ele>496.658325</ele><time>2012-06-19T16:41:38Z</time></trkpt>
<trkpt lat="48.31014742" lon="11.55994300"><ele>497.138916</ele><time>2012-06-19T16:41:44Z</time></trkpt>
<trkpt lat="48.31074991" lon="11.55983261"><ele>494.735596</ele><time>2012-06-19T16:42:11Z</time></trkpt>
<trkpt lat="48.31097622" lon="11.55984543"><ele>495.696899</ele><time>2012-06-19T16:42:18Z</time></trkpt>
<trkpt lat="48.31098930" lon="11.55987343"><ele>495.696899</ele><time>2012-06-19T16:42:19Z</time></trkpt>
<trkpt lat="48.31071177" lon="11.56052613"><ele>492.812988</ele><time>2012-06-19T16:42:32Z</time></trkpt>
<trkpt lat="48.31069878" lon="11.56057449"><ele>492.332397</ele><time>2012-06-19T16:42:34Z</time></trkpt>
<trkpt lat="48.31072913" lon="11.56059377"><ele>491.851685</ele><time>2012-06-19T16:42:37Z</time></trkpt>
<trkpt lat="48.31120455" lon="11.55976187"><ele>491.851685</ele><time>2012-06-19T16:42:56Z</time></trkpt>
<trkpt lat="48.31174971" lon="11.55947956"><ele>492.812988</ele><time>2012-06-19T16:43:05Z</time></trkpt>
<trkpt lat="48.31226067" lon="11.55905401"><ele>490.890381</ele><time>2012-06-19T16:43:13Z</time></trkpt>
<trkpt lat="48.31290096" lon="11.55851698"><ele>489.929077</ele><time>2012-06-19T16:43:22Z</time></trkpt>
<trkpt lat="48.31315476" lon="11.55832378"><ele>487.525635</ele><time>2012-06-19T16:43:33Z</time></trkpt>
<trkpt lat="48.31406713" lon="11.55198916"><ele>478.393188</ele><time>2012-06-19T16:44:23Z</time></trkpt>
<trkpt lat="48.31417400" lon="11.55187877"><ele>476.951294</ele><time>2012-06-19T16:44:26Z</time></trkpt>
<trkpt lat="48.31472805" lon="11.55206133"><ele>476.951294</ele><time>2012-06-19T16:44:34Z</time></trkpt>
<trkpt lat="48.31538561" lon="11.55225981"><ele>475.028687</ele><time>2012-06-19T16:44:42Z</time></trkpt>
<trkpt lat="48.31581468" lon="11.55259944"><ele>473.106079</ele><time>2012-06-19T16:44:48Z</time></trkpt>
<trkpt lat="48.31623193" lon="11.55311854"><ele>472.144653</ele><time>2012-06-19T16:44:56Z</time></trkpt>
<trkpt lat="48.31631818" lon="11.55323370"><ele>472.625366</ele><time>2012-06-19T16:44:58Z</time></trkpt>
<trkpt lat="48.31675228" lon="11.55394508"><ele>477.431885</ele><time>2012-06-19T16:45:10Z</time></trkpt>
<trkpt lat="48.31715729" lon="11.55472920"><ele>480.315918</ele><time>2012-06-19T16:45:24Z</time></trkpt>
<trkpt lat="48.31755434" lon="11.55530395"><ele>483.68042</ele><time>2012-06-19T16:45:35Z</time></trkpt>
<trkpt lat="48.31817578" lon="11.55653223"><ele>490.40979</ele><time>2012-06-19T16:45:53Z</time></trkpt>
<trkpt lat="48.31858062" lon="11.55736263"><ele>490.890381</ele><time>2012-06-19T16:46:05Z</time></trkpt>
<trkpt lat="48.31896946" lon="11.55801868"><ele>489.448364</ele><time>2012-06-19T16:46:15Z</time></trkpt>
<trkpt lat="48.31938981" lon="11.55871606"><ele>490.890381</ele><time>2012-06-19T16:46:25Z</time></trkpt>
<trkpt lat="48.31976742" lon="11.55936155"><ele>491.851685</ele><time>2012-06-19T16:46:35Z</time></trkpt>
<trkpt lat="48.31981519" lon="11.55960789"><ele>491.851685</ele><time>2012-06-19T16:46:40Z</time></trkpt>
<trkpt lat="48.31944983" lon="11.55974544"><ele>491.370972</ele><time>2012-06-19T16:47:09Z</time></trkpt>
<trkpt lat="48.31917121" lon="11.55989983"><ele>491.851685</ele><time>2012-06-19T16:47:15Z</time></trkpt>
<trkpt lat="48.31866645" lon="11.56038246"><ele>492.812988</ele><time>2012-06-19T16:47:26Z</time></trkpt>
<trkpt lat="48.31834258" lon="11.56069871"><ele>491.851685</ele><time>2012-06-19T16:47:32Z</time></trkpt>
<trkpt lat="48.31810864" lon="11.56052093"><ele>489.929077</ele><time>2012-06-19T16:47:36Z</time></trkpt>
<trkpt lat="48.31807025" lon="11.56030409"><ele>489.448364</ele><time>2012-06-19T16:47:38Z</time></trkpt>
<trkpt lat="48.31802054" lon="11.55996353"><ele>488.967773</ele><time>2012-06-19T16:47:41Z</time></trkpt>
<trkpt lat="48.31811702" lon="11.55962851"><ele>489.448364</ele><time>2012-06-19T16:47:45Z</time></trkpt>
<trkpt lat="48.31816421" lon="11.55958685"><ele>489.448364</ele><time>2012-06-19T16:47:46Z</time></trkpt>
<trkpt lat="48.31849010" lon="11.55948191"><ele>490.40979</ele><time>2012-06-19T16:47:52Z</time></trkpt>
<trkpt lat="48.31872622" lon="11.55943170"><ele>490.40979</ele><time>2012-06-19T16:47:56Z</time></trkpt>
<trkpt lat="48.31894247" lon="11.55972390"><ele>491.851685</ele><time>2012-06-19T16:48:02Z</time></trkpt>
<trkpt lat="48.31898253" lon="11.55977310"><ele>491.851685</ele><time>2012-06-19T16:48:03Z</time></trkpt>
<trkpt lat="48.31922016" lon="11.55984107"><ele>491.370972</ele><time>2012-06-19T16:48:08Z</time></trkpt>
<trkpt lat="48.31974931" lon="11.55968358"><ele>487.045044</ele><time>2012-06-19T16:48:18Z</time></trkpt>
<trkpt lat="48.31993187" lon="11.55957453"><ele>486.564453</ele><time>2012-06-19T16:48:25Z</time></trkpt>
<trkpt lat="48.31958184" lon="11.55893742"><ele>493.293579</ele><time>2012-06-19T16:48:40Z</time></trkpt>
<trkpt lat="48.31913525" lon="11.55828699"><ele>495.216187</ele><time>2012-06-19T16:48:50Z</time></trkpt>
<trkpt lat="48.31867291" lon="11.55753421"><ele>491.370972</ele><time>2012-06-19T16:48:59Z</time></trkpt>
<trkpt lat="48.31825197" lon="11.55684111"><ele>488.00647</ele><time>2012-06-19T16:49:07Z</time></trkpt>
<trkpt lat="48.31791711" lon="11.55604131"><ele>486.08374</ele><time>2012-06-19T16:49:17Z</time></trkpt>
<trkpt lat="48.31779247" lon="11.55573294"><ele>488.00647</ele><time>2012-06-19T16:49:23Z</time></trkpt>
<trkpt lat="48.31762944" lon="11.55543177"><ele>488.487183</ele><time>2012-06-19T16:49:28Z</time></trkpt>
<trkpt lat="48.31727556" lon="11.55493900"><ele>488.00647</ele><time>2012-06-19T16:49:34Z</time></trkpt>
<trkpt lat="48.31694783" lon="11.55433844"><ele>485.122437</ele><time>2012-06-19T16:49:40Z</time></trkpt>
<trkpt lat="48.31663183" lon="11.55371692"><ele>483.68042</ele><time>2012-06-19T16:49:47Z</time></trkpt>
<trkpt lat="48.31630452" lon="11.55315994"><ele>483.199829</ele><time>2012-06-19T16:49:54Z</time></trkpt>
<trkpt lat="48.31604426" lon="11.55276792"><ele>479.354492</ele><time>2012-06-19T16:49:58Z</time></trkpt>
<trkpt lat="48.31562835" lon="11.55232427"><ele>474.547974</ele><time>2012-06-19T16:50:03Z</time></trkpt>
<trkpt lat="48.31503851" lon="11.55212436"><ele>472.625366</ele><time>2012-06-19T16:50:09Z</time></trkpt>
<trkpt lat="48.31445647" lon="11.55190098"><ele>471.66394</ele><time>2012-06-19T16:50:16Z</time></trkpt>
<trkpt lat="48.31399170" lon="11.55169412"><ele>471.18335</ele><time>2012-06-19T16:50:22Z</time></trkpt>
<trkpt lat="48.31351225" lon="11.55102616"><ele>471.66394</ele><time>2012-06-19T16:50:30Z</time></trkpt>
<trkpt lat="48.31290037" lon="11.55002109"><ele>472.144653</ele><time>2012-06-19T16:50:41Z</time></trkpt>
<trkpt lat="48.31229084" lon="11.54905801"><ele>472.625366</ele><time>2012-06-19T16:50:52Z</time></trkpt>
<trkpt lat="48.31153094" lon="11.54795319"><ele>472.144653</ele><time>2012-06-19T16:51:05Z</time></trkpt>
<trkpt lat="48.31092199" lon="11.54687678"><ele>466.376709</ele><time>2012-06-19T16:51:16Z</time></trkpt>
<trkpt lat="48.31060180" lon="11.54597447"><ele>464.934814</ele><time>2012-06-19T16:51:24Z</time></trkpt>
<trkpt lat="48.30959933" lon="11.54357373"><ele>467.338135</ele><time>2012-06-19T16:51:46Z</time></trkpt>
<trkpt lat="48.30944560" lon="11.54297601"><ele>468.780029</ele><time>2012-06-19T16:51:51Z</time></trkpt>
<trkpt lat="48.30908476" lon="11.54244267"><ele>467.818726</ele><time>2012-06-19T16:51:57Z</time></trkpt>
<trkpt lat="48.30901025" lon="11.54237914"><ele>467.338135</ele><time>2012-06-19T16:51:58Z</time></trkpt>
<trkpt lat="48.30823475" lon="11.54163592"><ele>465.896118</ele><time>2012-06-19T16:52:09Z</time></trkpt>
<trkpt lat="48.30757745" lon="11.54072355"><ele>466.376709</ele><time>2012-06-19T16:52:20Z</time></trkpt>
<trkpt lat="48.30723052" lon="11.53991888"><ele>466.857422</ele><time>2012-06-19T16:52:28Z</time></trkpt>
<trkpt lat="48.30710496" lon="11.53902546"><ele>465.415527</ele><time>2012-06-19T16:52:35Z</time></trkpt>
<trkpt lat="48.30705718" lon="11.53835231"><ele>465.415527</ele><time>2012-06-19T16:52:40Z</time></trkpt>
<trkpt lat="48.30687303" lon="11.53775166"><ele>464.934814</ele><time>2012-06-19T16:52:45Z</time></trkpt>
<trkpt lat="48.30674940" lon="11.53756508"><ele>464.934814</ele><time>2012-06-19T16:52:47Z</time></trkpt>
<trkpt lat="48.30640465" lon="11.53697499"><ele>464.454102</ele><time>2012-06-19T16:52:53Z</time></trkpt>
<trkpt lat="48.30619778" lon="11.53658666"><ele>464.454102</ele><time>2012-06-19T16:52:57Z</time></trkpt>
<trkpt lat="48.30613509" lon="11.53600940"><ele>464.454102</ele><time>2012-06-19T16:53:02Z</time></trkpt>
<trkpt lat="48.30622134" lon="11.53500549"><ele>463.492798</ele><time>2012-06-19T16:53:11Z</time></trkpt>
<trkpt lat="48.30631547" lon="11.53456469"><ele>463.973389</ele><time>2012-06-19T16:53:16Z</time></trkpt>
<trkpt lat="48.30629493" lon="11.53412883"><ele>462.531372</ele><time>2012-06-19T16:53:21Z</time></trkpt>
<trkpt lat="48.30618043" lon="11.53397134"><ele>461.57019</ele><time>2012-06-19T16:53:25Z</time></trkpt>
<trkpt lat="48.30605973" lon="11.53410000"><ele>462.050781</ele><time>2012-06-19T16:53:29Z</time></trkpt>
<trkpt lat="48.30611824" lon="11.53428574"><ele>462.050781</ele><time>2012-06-19T16:53:33Z</time></trkpt>
<trkpt lat="48.30626375" lon="11.53465832"><ele>461.089478</ele><time>2012-06-19T16:53:42Z</time></trkpt>
<trkpt lat="48.30627456" lon="11.53535762"><ele>463.012085</ele><time>2012-06-19T16:53:53Z</time></trkpt>
<trkpt lat="48.30622947" lon="11.53611358"><ele>463.012085</ele><time>2012-06-19T16:54:01Z</time></trkpt>
<trkpt lat="48.30631773" lon="11.53653695"><ele>463.492798</ele><time>2012-06-19T16:54:06Z</time></trkpt>
<trkpt lat="48.30653256" lon="11.53696259"><ele>464.454102</ele><time>2012-06-19T16:54:13Z</time></trkpt>
<trkpt lat="48.30658159" lon="11.53727054"><ele>463.012085</ele><time>2012-06-19T16:54:31Z</time></trkpt>
<trkpt lat="48.30663566" lon="11.53730038"><ele>463.012085</ele><time>2012-06-19T16:54:37Z</time></trkpt>
<trkpt lat="48.30684897" lon="11.53754211"><ele>462.531372</ele><time>2012-06-19T16:54:45Z</time></trkpt>
<trkpt lat="48.30710571" lon="11.53796984"><ele>462.050781</ele><time>2012-06-19T16:54:53Z</time></trkpt>
<trkpt lat="48.30717729" lon="11.53836597"><ele>461.089478</ele><time>2012-06-19T16:54:58Z</time></trkpt>
<trkpt lat="48.30728902" lon="11.53946299"><ele>459.647583</ele><time>2012-06-19T16:55:10Z</time></trkpt>
<trkpt lat="48.30743713" lon="11.54024477"><ele>459.647583</ele><time>2012-06-19T16:55:19Z</time></trkpt>
<trkpt lat="48.30744233" lon="11.54047552"><ele>463.492798</ele><time>2012-06-19T16:55:24Z</time></trkpt>
<trkpt lat="48.30718760" lon="11.54063235"><ele>465.896118</ele><time>2012-06-19T16:55:33Z</time></trkpt>
<trkpt lat="48.30702072" lon="11.54074802"><ele>466.857422</ele><time>2012-06-19T16:55:37Z</time></trkpt>
<trkpt lat="48.30668226" lon="11.54078675"><ele>467.818726</ele><time>2012-06-19T16:55:45Z</time></trkpt>
<trkpt lat="48.30622377" lon="11.54072614"><ele>469.741333</ele><time>2012-06-19T16:55:55Z</time></trkpt>
<trkpt lat="48.30577676" lon="11.54095472"><ele>472.625366</ele><time>2012-06-19T16:56:06Z</time></trkpt>
<trkpt lat="48.30558591" lon="11.54123023"><ele>475.028687</ele><time>2012-06-19T16:56:14Z</time></trkpt>
<trkpt lat="48.30551307" lon="11.54150650"><ele>476.470581</ele><time>2012-06-19T16:56:20Z</time></trkpt>
<trkpt lat="48.30537074" lon="11.54185058"><ele>478.873901</ele><time>2012-06-19T16:56:27Z</time></trkpt>
<trkpt lat="48.30509188" lon="11.54207923"><ele>481.277222</ele><time>2012-06-19T16:56:35Z</time></trkpt>
<trkpt lat="48.30474277" lon="11.54223832"><ele>483.199829</ele><time>2012-06-19T16:56:44Z</time></trkpt>
<trkpt lat="48.30461076" lon="11.54232323"><ele>484.161133</ele><time>2012-06-19T16:56:47Z</time></trkpt>
<trkpt lat="48.30434195" lon="11.54266630"><ele>484.641846</ele><time>2012-06-19T16:56:54Z</time></trkpt>
<trkpt lat="48.30407867" lon="11.54344515"><ele>486.564453</ele><time>2012-06-19T16:57:04Z</time></trkpt>
<trkpt lat="48.30391891" lon="11.54426213"><ele>488.487183</ele><time>2012-06-19T16:57:14Z</time></trkpt>
<trkpt lat="48.30386938" lon="11.54459121"><ele>488.967773</ele><time>2012-06-19T16:57:18Z</time></trkpt>
<trkpt lat="48.30379168" lon="11.54545488"><ele>489.448364</ele><time>2012-06-19T16:57:28Z</time></trkpt>
<trkpt lat="48.30375949" lon="11.54608335"><ele>490.890381</ele><time>2012-06-19T16:57:35Z</time></trkpt>
<trkpt lat="48.30376930" lon="11.54679095"><ele>492.332397</ele><time>2012-06-19T16:57:43Z</time></trkpt>
<trkpt lat="48.30389217" lon="11.54748866"><ele>493.774292</ele><time>2012-06-19T16:57:51Z</time></trkpt>
<trkpt lat="48.30407591" lon="11.54853649"><ele>496.658325</ele><time>2012-06-19T16:58:03Z</time></trkpt>
<trkpt lat="48.30428135" lon="11.54979017"><ele>499.542236</ele><time>2012-06-19T16:58:17Z</time></trkpt>
<trkpt lat="48.30447279" lon="11.55093941"><ele>499.542236</ele><time>2012-06-19T16:58:29Z</time></trkpt>
<trkpt lat="48.30460673" lon="11.55177257"><ele>499.061523</ele><time>2012-06-19T16:58:38Z</time></trkpt>
<trkpt lat="48.30477144" lon="11.55281151"><ele>499.061523</ele><time>2012-06-19T16:58:49Z</time></trkpt>
<trkpt lat="48.30498082" lon="11.55406435"><ele>499.061523</ele><time>2012-06-19T16:59:02Z</time></trkpt>
<trkpt lat="48.30511434" lon="11.55517939"><ele>499.061523</ele><time>2012-06-19T16:59:14Z</time></trkpt>
<trkpt lat="48.30516036" lon="11.55573688"><ele>498.580933</ele><time>2012-06-19T16:59:22Z</time></trkpt>
<trkpt lat="48.30517075" lon="11.55583494"><ele>498.580933</ele><time>2012-06-19T16:59:27Z</time></trkpt>
<trkpt lat="48.30516865" lon="11.55731116"><ele>496.658325</ele><time>2012-06-19T16:59:46Z</time></trkpt>
<trkpt lat="48.30502491" lon="11.55835027"><ele>495.216187</ele><time>2012-06-19T16:59:56Z</time></trkpt>
<trkpt lat="48.30492105" lon="11.55952726"><ele>492.812988</ele><time>2012-06-19T17:00:06Z</time></trkpt>
<trkpt lat="48.30470799" lon="11.56056854"><ele>489.929077</ele><time>2012-06-19T17:00:15Z</time></trkpt>
<trkpt lat="48.30443214" lon="11.56188391"><ele>488.00647</ele><time>2012-06-19T17:00:26Z</time></trkpt>
<trkpt lat="48.30460204" lon="11.56309702"><ele>487.525635</ele><time>2012-06-19T17:00:40Z</time></trkpt>
<trkpt lat="48.30467630" lon="11.56380144"><ele>486.564453</ele><time>2012-06-19T17:00:47Z</time></trkpt>
<trkpt lat="48.30451671" lon="11.56400562"><ele>485.603027</ele><time>2012-06-19T17:00:51Z</time></trkpt>
<trkpt lat="48.30425134" lon="11.56391560"><ele>485.122437</ele><time>2012-06-19T17:00:55Z</time></trkpt>
<trkpt lat="48.30379302" lon="11.56359902"><ele>485.603027</ele><time>2012-06-19T17:01:02Z</time></trkpt>
<trkpt lat="48.30352823" lon="11.56364612"><ele>486.08374</ele><time>2012-06-19T17:01:06Z</time></trkpt>
<trkpt lat="48.30347316" lon="11.56371159"><ele>486.08374</ele><time>2012-06-19T17:01:07Z</time></trkpt>
<trkpt lat="48.30328130" lon="11.56407461"><ele>486.08374</ele><time>2012-06-19T17:01:11Z</time></trkpt>
<trkpt lat="48.30305013" lon="11.56512922"><ele>483.68042</ele><time>2012-06-19T17:01:20Z</time></trkpt>
<trkpt lat="48.30282734" lon="11.56684047"><ele>479.835083</ele><time>2012-06-19T17:01:33Z</time></trkpt>
<trkpt lat="48.30257664" lon="11.56768704"><ele>478.393188</ele><time>2012-06-19T17:01:40Z</time></trkpt>
<trkpt lat="48.30223926" lon="11.56810622"><ele>477.912476</ele><time>2012-06-19T17:01:45Z</time></trkpt>
<trkpt lat="48.30215662" lon="11.56814980"><ele>477.912476</ele><time>2012-06-19T17:01:46Z</time></trkpt>
<trkpt lat="48.30131482" lon="11.56839439"><ele>476.951294</ele><time>2012-06-19T17:01:56Z</time></trkpt>
<trkpt lat="48.30113729" lon="11.56838919"><ele>476.470581</ele><time>2012-06-19T17:01:58Z</time></trkpt>
<trkpt lat="48.30091383" lon="11.56863587"><ele>475.028687</ele><time>2012-06-19T17:02:01Z</time></trkpt>
<trkpt lat="48.30086237" lon="11.56876001"><ele>474.067261</ele><time>2012-06-19T17:02:02Z</time></trkpt>
<trkpt lat="48.30062985" lon="11.56930458"><ele>473.106079</ele><time>2012-06-19T17:02:07Z</time></trkpt>
<trkpt lat="48.30051318" lon="11.56946903"><ele>471.66394</ele><time>2012-06-19T17:02:12Z</time></trkpt>
<trkpt lat="48.30051242" lon="11.56963063"><ele>471.18335</ele><time>2012-06-19T17:02:18Z</time></trkpt>
<trkpt lat="48.30056489" lon="11.56972853"><ele>471.18335</ele><time>2012-06-19T17:02:21Z</time></trkpt>
<trkpt lat="48.30013214" lon="11.56899294"><ele>469.260742</ele><time>2012-06-19T17:02:38Z</time></trkpt>
<trkpt lat="48.29964171" lon="11.56859966"><ele>467.818726</ele><time>2012-06-19T17:02:45Z</time></trkpt>
<trkpt lat="48.29877310" lon="11.56792894"><ele>468.299316</ele><time>2012-06-19T17:02:57Z</time></trkpt>
<trkpt lat="48.29828292" lon="11.56737515"><ele>467.818726</ele><time>2012-06-19T17:03:05Z</time></trkpt>
<trkpt lat="48.29806021" lon="11.56720407"><ele>468.780029</ele><time>2012-06-19T17:03:10Z</time></trkpt>
<trkpt lat="48.29774732" lon="11.56678808"><ele>467.818726</ele><time>2012-06-19T17:03:18Z</time></trkpt>
<trkpt lat="48.29725538" lon="11.56614544"><ele>467.818726</ele><time>2012-06-19T17:03:28Z</time></trkpt>
<trkpt lat="48.29709101" lon="11.56592516"><ele>467.818726</ele><time>2012-06-19T17:03:31Z</time></trkpt>
<trkpt lat="48.29647042" lon="11.56486728"><ele>470.221924</ele><time>2012-06-19T17:03:44Z</time></trkpt>
<trkpt lat="48.29627428" lon="11.56441198"><ele>470.221924</ele><time>2012-06-19T17:03:49Z</time></trkpt>
<trkpt lat="48.29621628" lon="11.56386732"><ele>470.221924</ele><time>2012-06-19T17:03:54Z</time></trkpt>
<trkpt lat="48.29629155" lon="11.56237090"><ele>469.741333</ele><time>2012-06-19T17:04:07Z</time></trkpt>
<trkpt lat="48.29634226" lon="11.56170068"><ele>469.741333</ele><time>2012-06-19T17:04:14Z</time></trkpt>
<trkpt lat="48.29618988" lon="11.56166975"><ele>468.780029</ele><time>2012-06-19T17:04:19Z</time></trkpt>
<trkpt lat="48.29569451" lon="11.56195734"><ele>468.299316</ele><time>2012-06-19T17:04:28Z</time></trkpt>
<trkpt lat="48.29504860" lon="11.56233444"><ele>468.780029</ele><time>2012-06-19T17:04:39Z</time></trkpt>
<trkpt lat="48.29439841" lon="11.56278547"><ele>468.780029</ele><time>2012-06-19T17:04:51Z</time></trkpt>
<trkpt lat="48.29383272" lon="11.56331621"><ele>468.299316</ele><time>2012-06-19T17:05:01Z</time></trkpt>
<trkpt lat="48.29338420" lon="11.56396572"><ele>467.818726</ele><time>2012-06-19T17:05:10Z</time></trkpt>
<trkpt lat="48.29291373" lon="11.56466184"><ele>464.454102</ele><time>2012-06-19T17:05:20Z</time></trkpt>
<trkpt lat="48.29254593" lon="11.56523852"><ele>459.647583</ele><time>2012-06-19T17:05:32Z</time></trkpt>
<trkpt lat="48.29265389" lon="11.56544044"><ele>459.647583</ele><time>2012-06-19T17:05:39Z</time></trkpt>
<trkpt lat="48.29245490" lon="11.56566608"><ele>462.050781</ele><time>2012-06-19T17:05:47Z</time></trkpt>
<trkpt lat="48.29221032" lon="11.56585911"><ele>466.376709</ele><time>2012-06-19T17:06:03Z</time></trkpt>
<trkpt lat="48.29218014" lon="11.56588451"><ele>466.857422</ele><time>2012-06-19T17:06:07Z</time></trkpt>
<trkpt lat="48.29225273" lon="11.56601585"><ele>468.299316</ele><time>2012-06-19T17:06:14Z</time></trkpt>
<trkpt lat="48.29245079" lon="11.56625801"><ele>469.260742</ele><time>2012-06-19T17:06:21Z</time></trkpt>
<trkpt lat="48.29267048" lon="11.56659370"><ele>469.741333</ele><time>2012-06-19T17:06:27Z</time></trkpt>
<trkpt lat="48.29319418" lon="11.56714121"><ele>469.741333</ele><time>2012-06-19T17:06:38Z</time></trkpt>
<trkpt lat="48.29368101" lon="11.56764463"><ele>471.18335</ele><time>2012-06-19T17:06:47Z</time></trkpt>
<trkpt lat="48.29447469" lon="11.56840235"><ele>470.702637</ele><time>2012-06-19T17:07:01Z</time></trkpt>
<trkpt lat="48.29477509" lon="11.56868666"><ele>470.702637</ele><time>2012-06-19T17:07:06Z</time></trkpt>
<trkpt lat="48.29531045" lon="11.56938873"><ele>468.780029</ele><time>2012-06-19T17:07:16Z</time></trkpt>
<trkpt lat="48.29565234" lon="11.56974404"><ele>468.780029</ele><time>2012-06-19T17:07:22Z</time></trkpt>
<trkpt lat="48.29590632" lon="11.57031066"><ele>468.299316</ele><time>2012-06-19T17:07:29Z</time></trkpt>
<trkpt lat="48.29609063" lon="11.57106436"><ele>468.299316</ele><time>2012-06-19T17:07:37Z</time></trkpt>
<trkpt lat="48.29631359" lon="11.57142570"><ele>467.338135</ele><time>2012-06-19T17:07:42Z</time></trkpt>
<trkpt lat="48.29642608" lon="11.57154229"><ele>467.338135</ele><time>2012-06-19T17:07:44Z</time></trkpt>
<trkpt lat="48.29654125" lon="11.57201218"><ele>467.818726</ele><time>2012-06-19T17:07:49Z</time></trkpt>
<trkpt lat="48.29644108" lon="11.57228610"><ele>467.818726</ele><time>2012-06-19T17:07:52Z</time></trkpt>
<trkpt lat="48.29635668" lon="11.57245517"><ele>467.818726</ele><time>2012-06-19T17:07:54Z</time></trkpt>
<trkpt lat="48.29628820" lon="11.57286513"><ele>468.299316</ele><time>2012-06-19T17:07:58Z</time></trkpt>
<trkpt lat="48.29630429" lon="11.57319294"><ele>467.818726</ele><time>2012-06-19T17:08:01Z</time></trkpt>
<trkpt lat="48.29626121" lon="11.57351791"><ele>467.338135</ele><time>2012-06-19T17:08:04Z</time></trkpt>
<trkpt lat="48.29614880" lon="11.57394229"><ele>467.338135</ele><time>2012-06-19T17:08:08Z</time></trkpt>
<trkpt lat="48.29610874" lon="11.57458643"><ele>467.818726</ele><time>2012-06-19T17:08:14Z</time></trkpt>
<trkpt lat="48.29628141" lon="11.57549973"><ele>469.260742</ele><time>2012-06-19T17:08:22Z</time></trkpt>
<trkpt lat="48.29640781" lon="11.57634010"><ele>469.741333</ele><time>2012-06-19T17:08:30Z</time></trkpt>
<trkpt lat="48.29662146" lon="11.57670454"><ele>470.221924</ele><time>2012-06-19T17:08:35Z</time></trkpt>
<trkpt lat="48.29668541" lon="11.57673472"><ele>470.221924</ele><time>2012-06-19T17:08:36Z</time></trkpt>
<trkpt lat="48.29697409" lon="11.57698190"><ele>471.66394</ele><time>2012-06-19T17:08:42Z</time></trkpt>
<trkpt lat="48.29698591" lon="11.57711643"><ele>471.66394</ele><time>2012-06-19T17:08:44Z</time></trkpt>
<trkpt lat="48.29693855" lon="11.57750895"><ele>472.625366</ele><time>2012-06-19T17:08:51Z</time></trkpt>
<trkpt lat="48.29675213" lon="11.57765907"><ele>473.58667</ele><time>2012-06-19T17:08:57Z</time></trkpt>
<trkpt lat="48.29641451" lon="11.57779025"><ele>474.067261</ele><time>2012-06-19T17:09:04Z</time></trkpt>
<trkpt lat="48.29599240" lon="11.57798605"><ele>475.509277</ele><time>2012-06-19T17:09:13Z</time></trkpt>
<trkpt lat="48.29558822" lon="11.57817741"><ele>475.028687</ele><time>2012-06-19T17:09:21Z</time></trkpt>
<trkpt lat="48.29517290" lon="11.57843054"><ele>476.470581</ele><time>2012-06-19T17:09:29Z</time></trkpt>
<trkpt lat="48.29495179" lon="11.57847212"><ele>476.951294</ele><time>2012-06-19T17:09:49Z</time></trkpt>
<trkpt lat="48.29490610" lon="11.57854378"><ele>476.470581</ele><time>2012-06-19T17:09:55Z</time></trkpt>
<trkpt lat="48.29488439" lon="11.57856021"><ele>476.470581</ele><time>2012-06-19T17:10:01Z</time></trkpt>
<trkpt lat="48.29488054" lon="11.57856130"><ele>475.989868</ele><time>2012-06-19T17:10:20Z</time></trkpt>
<trkpt lat="48.29455557" lon="11.57794221"><ele>475.509277</ele><time>2012-06-19T17:11:10Z</time></trkpt>
<trkpt lat="48.29407730" lon="11.57582587"><ele>471.18335</ele><time>2012-06-19T17:11:39Z</time></trkpt>
<trkpt lat="48.29389391" lon="11.57545983"><ele>470.221924</ele><time>2012-06-19T17:11:45Z</time></trkpt>
<trkpt lat="48.29359375" lon="11.57485767"><ele>469.741333</ele><time>2012-06-19T17:11:54Z</time></trkpt>
<trkpt lat="48.29306686" lon="11.57377406"><ele>470.221924</ele><time>2012-06-19T17:12:07Z</time></trkpt>
<trkpt lat="48.29258683" lon="11.57276580"><ele>470.702637</ele><time>2012-06-19T17:12:19Z</time></trkpt>
<trkpt lat="48.29225851" lon="11.57209014"><ele>472.144653</ele><time>2012-06-19T17:12:28Z</time></trkpt>
<trkpt lat="48.29191620" lon="11.57138614"><ele>472.144653</ele><time>2012-06-19T17:12:39Z</time></trkpt>
<trkpt lat="48.29137095" lon="11.57176140"><ele>471.18335</ele><time>2012-06-19T17:13:11Z</time></trkpt>
<trkpt lat="48.29082085" lon="11.57236758"><ele>472.144653</ele><time>2012-06-19T17:13:25Z</time></trkpt>
<trkpt lat="48.29074097" lon="11.57243790"><ele>471.66394</ele><time>2012-06-19T17:13:27Z</time></trkpt>
<trkpt lat="48.29043763" lon="11.57268827"><ele>472.144653</ele><time>2012-06-19T17:13:33Z</time></trkpt>
<trkpt lat="48.28987797" lon="11.57334340"><ele>470.702637</ele><time>2012-06-19T17:13:44Z</time></trkpt>
<trkpt lat="48.28939391" lon="11.57391739"><ele>470.702637</ele><time>2012-06-19T17:13:53Z</time></trkpt>
<trkpt lat="48.28917640" lon="11.57371195"><ele>471.18335</ele><time>2012-06-19T17:13:58Z</time></trkpt>
<trkpt lat="48.28882369" lon="11.57305632"><ele>473.58667</ele><time>2012-06-19T17:14:06Z</time></trkpt>
<trkpt lat="48.28819111" lon="11.57177607"><ele>473.58667</ele><time>2012-06-19T17:14:20Z</time></trkpt>
<trkpt lat="48.28761108" lon="11.57067485"><ele>474.547974</ele><time>2012-06-19T17:14:33Z</time></trkpt>
<trkpt lat="48.28752374" lon="11.57054309"><ele>474.547974</ele><time>2012-06-19T17:14:35Z</time></trkpt>
<trkpt lat="48.28716952" lon="11.57046447"><ele>474.067261</ele><time>2012-06-19T17:14:41Z</time></trkpt>
<trkpt lat="48.28662914" lon="11.57036539"><ele>473.106079</ele><time>2012-06-19T17:14:49Z</time></trkpt>
<trkpt lat="48.28655119" lon="11.57034058"><ele>475.509277</ele><time>2012-06-19T17:14:50Z</time></trkpt>
<trkpt lat="48.28625447" lon="11.57005543"><ele>475.028687</ele><time>2012-06-19T17:14:55Z</time></trkpt>
<trkpt lat="48.28622195" lon="11.56995577"><ele>475.989868</ele><time>2012-06-19T17:14:56Z</time></trkpt>
<trkpt lat="48.28589841" lon="11.56896955"><ele>479.354492</ele><time>2012-06-19T17:15:06Z</time></trkpt>
<trkpt lat="48.28567444" lon="11.56827268"><ele>479.835083</ele><time>2012-06-19T17:15:13Z</time></trkpt>
<trkpt lat="48.28551577" lon="11.56819691"><ele>478.393188</ele><time>2012-06-19T17:15:17Z</time></trkpt>
<trkpt lat="48.28492200" lon="11.56866521"><ele>477.431885</ele><time>2012-06-19T17:15:28Z</time></trkpt>
<trkpt lat="48.28449578" lon="11.56908858"><ele>476.470581</ele><time>2012-06-19T17:15:35Z</time></trkpt>
<trkpt lat="48.28388709" lon="11.57004445"><ele>474.067261</ele><time>2012-06-19T17:15:46Z</time></trkpt>
<trkpt lat="48.28324310" lon="11.57105187"><ele>474.067261</ele><time>2012-06-19T17:15:58Z</time></trkpt>
<trkpt lat="48.28315074" lon="11.57120023"><ele>473.58667</ele><time>2012-06-19T17:16:00Z</time></trkpt>
<trkpt lat="48.28296340" lon="11.57118564"><ele>473.106079</ele><time>2012-06-19T17:16:05Z</time></trkpt>
<trkpt lat="48.28292694" lon="11.57113116"><ele>472.625366</ele><time>2012-06-19T17:16:06Z</time></trkpt>
<trkpt lat="48.28279903" lon="11.57095070"><ele>472.144653</ele><time>2012-06-19T17:16:09Z</time></trkpt>
<trkpt lat="48.28257800" lon="11.57095263"><ele>471.18335</ele><time>2012-06-19T17:16:13Z</time></trkpt>
<trkpt lat="48.28248379" lon="11.57108783"><ele>470.702637</ele><time>2012-06-19T17:16:15Z</time></trkpt>
<trkpt lat="48.28209478" lon="11.57170298"><ele>471.18335</ele><time>2012-06-19T17:16:23Z</time></trkpt>
<trkpt lat="48.28184240" lon="11.57207429"><ele>471.18335</ele><time>2012-06-19T17:16:28Z</time></trkpt>
<trkpt lat="48.28168164" lon="11.57222358"><ele>471.66394</ele><time>2012-06-19T17:16:31Z</time></trkpt>
<trkpt lat="48.28127143" lon="11.57280846"><ele>471.66394</ele><time>2012-06-19T17:16:40Z</time></trkpt>
<trkpt lat="48.28110555" lon="11.57344038"><ele>472.144653</ele><time>2012-06-19T17:16:56Z</time></trkpt>
<trkpt lat="48.28124930" lon="11.57390834"><ele>472.144653</ele><time>2012-06-19T17:17:07Z</time></trkpt>
<trkpt lat="48.28130026" lon="11.57408821"><ele>472.144653</ele><time>2012-06-19T17:17:12Z</time></trkpt>
<trkpt lat="48.28077086" lon="11.57353115"><ele>472.144653</ele><time>2012-06-19T17:17:31Z</time></trkpt>
<trkpt lat="48.28030399" lon="11.57345563"><ele>470.702637</ele><time>2012-06-19T17:17:38Z</time></trkpt>
<trkpt lat="48.28022797" lon="11.57345764"><ele>470.221924</ele><time>2012-06-19T17:17:39Z</time></trkpt>
<trkpt lat="48.27959513" lon="11.57361615"><ele>470.221924</ele><time>2012-06-19T17:17:47Z</time></trkpt>
<trkpt lat="48.27953101" lon="11.57362050"><ele>470.221924</ele><time>2012-06-19T17:17:48Z</time></trkpt>
<trkpt lat="48.27939380" lon="11.57373995"><ele>469.260742</ele><time>2012-06-19T17:17:52Z</time></trkpt>
<trkpt lat="48.27945063" lon="11.57388755"><ele>469.260742</ele><time>2012-06-19T17:17:56Z</time></trkpt>
<trkpt lat="48.27909892" lon="11.57488483"><ele>472.144653</ele><time>2012-06-19T17:18:13Z</time></trkpt>
<trkpt lat="48.27872191" lon="11.57553845"><ele>473.58667</ele><time>2012-06-19T17:18:21Z</time></trkpt>
<trkpt lat="48.27808882" lon="11.57656859"><ele>473.58667</ele><time>2012-06-19T17:18:33Z</time></trkpt>
<trkpt lat="48.27752916" lon="11.57753938"><ele>473.106079</ele><time>2012-06-19T17:18:44Z</time></trkpt>
<trkpt lat="48.27690965" lon="11.57857982"><ele>475.509277</ele><time>2012-06-19T17:18:56Z</time></trkpt>
<trkpt lat="48.27632041" lon="11.57964692"><ele>476.951294</ele><time>2012-06-19T17:19:07Z</time></trkpt>
<trkpt lat="48.27558548" lon="11.58097462"><ele>475.509277</ele><time>2012-06-19T17:19:21Z</time></trkpt>
<trkpt lat="48.27496120" lon="11.58195002"><ele>475.989868</ele><time>2012-06-19T17:19:32Z</time></trkpt>
<trkpt lat="48.27489842" lon="11.58202864"><ele>475.989868</ele><time>2012-06-19T17:19:33Z</time></trkpt>
<trkpt lat="48.27413022" lon="11.58270867"><ele>476.470581</ele><time>2012-06-19T17:19:44Z</time></trkpt>
<trkpt lat="48.27329873" lon="11.58325802"><ele>478.393188</ele><time>2012-06-19T17:19:55Z</time></trkpt>
<trkpt lat="48.27235744" lon="11.58388004"><ele>480.315918</ele><time>2012-06-19T17:20:07Z</time></trkpt>
<trkpt lat="48.27134667" lon="11.58450340"><ele>481.277222</ele><time>2012-06-19T17:20:20Z</time></trkpt>
<trkpt lat="48.27065709" lon="11.58495778"><ele>481.277222</ele><time>2012-06-19T17:20:30Z</time></trkpt>
<trkpt lat="48.27054888" lon="11.58498343"><ele>480.796631</ele><time>2012-06-19T17:20:34Z</time></trkpt>
<trkpt lat="48.27050647" lon="11.58500782"><ele>481.277222</ele><time>2012-06-19T17:20:39Z</time></trkpt>
<trkpt lat="48.27049649" lon="11.58500992"><ele>484.161133</ele><time>2012-06-19T17:20:48Z</time></trkpt>
<trkpt lat="48.27040530" lon="11.58500539"><ele>488.00647</ele><time>2012-06-19T17:21:06Z</time></trkpt>
<trkpt lat="48.27031519" lon="11.58509172"><ele>485.122437</ele><time>2012-06-19T17:21:13Z</time></trkpt>
<trkpt lat="48.27018251" lon="11.58520941"><ele>480.796631</ele><time>2012-06-19T17:21:22Z</time></trkpt>
<trkpt lat="48.27004882" lon="11.58535802"><ele>479.835083</ele><time>2012-06-19T17:21:30Z</time></trkpt>
<trkpt lat="48.26986802" lon="11.58555801"><ele>479.354492</ele><time>2012-06-19T17:21:37Z</time></trkpt>
<trkpt lat="48.26950072" lon="11.58583025"><ele>479.354492</ele><time>2012-06-19T17:21:45Z</time></trkpt>
<trkpt lat="48.26902145" lon="11.58623284"><ele>480.315918</ele><time>2012-06-19T17:21:54Z</time></trkpt>
<trkpt lat="48.26854661" lon="11.58672695"><ele>479.354492</ele><time>2012-06-19T17:22:02Z</time></trkpt>
<trkpt lat="48.26812668" lon="11.58702635"><ele>478.873901</ele><time>2012-06-19T17:22:08Z</time></trkpt>
<trkpt lat="48.26787522" lon="11.58703758"><ele>478.393188</ele><time>2012-06-19T17:22:13Z</time></trkpt>
<trkpt lat="48.26767816" lon="11.58714789"><ele>478.873901</ele><time>2012-06-19T17:22:17Z</time></trkpt>
<trkpt lat="48.26755822" lon="11.58715837"><ele>478.873901</ele><time>2012-06-19T17:22:19Z</time></trkpt>
<trkpt lat="48.26706310" lon="11.58712878"><ele>478.873901</ele><time>2012-06-19T17:22:26Z</time></trkpt>
<trkpt lat="48.26682036" lon="11.58707815"><ele>478.393188</ele><time>2012-06-19T17:22:29Z</time></trkpt>
<trkpt lat="48.26622684" lon="11.58676316"><ele>477.912476</ele><time>2012-06-19T17:22:36Z</time></trkpt>
<trkpt lat="48.26560473" lon="11.58658756"><ele>478.393188</ele><time>2012-06-19T17:22:43Z</time></trkpt>
<trkpt lat="48.26516845" lon="11.58671513"><ele>478.393188</ele><time>2012-06-19T17:22:48Z</time></trkpt>
<trkpt lat="48.26446622" lon="11.58718075"><ele>478.393188</ele><time>2012-06-19T17:22:57Z</time></trkpt>
<trkpt lat="48.26414142" lon="11.58741502"><ele>478.393188</ele><time>2012-06-19T17:23:02Z</time></trkpt>
<trkpt lat="48.26359701" lon="11.58779556"><ele>478.393188</ele><time>2012-06-19T17:23:09Z</time></trkpt>
<trkpt lat="48.26268020" lon="11.58839126"><ele>479.835083</ele><time>2012-06-19T17:23:21Z</time></trkpt>
<trkpt lat="48.26252614" lon="11.58849352"><ele>479.835083</ele><time>2012-06-19T17:23:25Z</time></trkpt>
<trkpt lat="48.26246973" lon="11.58854909"><ele>480.315918</ele><time>2012-06-19T17:23:27Z</time></trkpt>
<trkpt lat="48.26248029" lon="11.58886316"><ele>481.277222</ele><time>2012-06-19T17:23:31Z</time></trkpt>
<trkpt lat="48.26254274" lon="11.58987528"><ele>480.315918</ele><time>2012-06-19T17:23:43Z</time></trkpt>
<trkpt lat="48.26254550" lon="11.58997066"><ele>480.315918</ele><time>2012-06-19T17:23:44Z</time></trkpt>
<trkpt lat="48.26242128" lon="11.59027618"><ele>479.354492</ele><time>2012-06-19T17:23:48Z</time></trkpt>
<trkpt lat="48.26197998" lon="11.59057198"><ele>479.354492</ele><time>2012-06-19T17:23:56Z</time></trkpt>
<trkpt lat="48.26184872" lon="11.59068807"><ele>478.873901</ele><time>2012-06-19T17:24:01Z</time></trkpt>
<trkpt lat="48.26168158" lon="11.59053175"><ele>479.835083</ele><time>2012-06-19T17:24:07Z</time></trkpt>
<trkpt lat="48.26150975" lon="11.59033586"><ele>479.835083</ele><time>2012-06-19T17:24:12Z</time></trkpt>
<trkpt lat="48.26122217" lon="11.59000117"><ele>480.796631</ele><time>2012-06-19T17:24:22Z</time></trkpt>
<trkpt lat="48.26090793" lon="11.58962240"><ele>481.277222</ele><time>2012-06-19T17:24:32Z</time></trkpt>
<trkpt lat="48.26068128" lon="11.58937513"><ele>482.238525</ele><time>2012-06-19T17:24:41Z</time></trkpt>
<trkpt lat="48.26076494" lon="11.58774778"><ele>479.835083</ele><time>2012-06-19T17:25:05Z</time></trkpt>
<trkpt lat="48.26078849" lon="11.58740714"><ele>478.873901</ele><time>2012-06-19T17:25:09Z</time></trkpt>
<trkpt lat="48.26068288" lon="11.58727697"><ele>478.393188</ele><time>2012-06-19T17:25:13Z</time></trkpt>
<trkpt lat="48.26069361" lon="11.58859176"><ele>476.951294</ele><time>2012-06-19T17:25:47Z</time></trkpt>
<trkpt lat="48.26068162" lon="11.58897825"><ele>475.989868</ele><time>2012-06-19T17:25:52Z</time></trkpt>
<trkpt lat="48.26065337" lon="11.58921705"><ele>475.509277</ele><time>2012-06-19T17:25:56Z</time></trkpt>
<trkpt lat="48.26078539" lon="11.58942249"><ele>476.951294</ele><time>2012-06-19T17:26:02Z</time></trkpt>
<trkpt lat="48.26113215" lon="11.58986748"><ele>479.354492</ele><time>2012-06-19T17:26:12Z</time></trkpt>
<trkpt lat="48.26155485" lon="11.59040485"><ele>480.315918</ele><time>2012-06-19T17:26:22Z</time></trkpt>
<trkpt lat="48.26201443" lon="11.59094171"><ele>480.796631</ele><time>2012-06-19T17:26:33Z</time></trkpt>
<trkpt lat="48.26254140" lon="11.59152802"><ele>480.796631</ele><time>2012-06-19T17:26:44Z</time></trkpt>
<trkpt lat="48.26331119" lon="11.59237719"><ele>481.277222</ele><time>2012-06-19T17:27:08Z</time></trkpt>
<trkpt lat="48.26363079" lon="11.59278883"><ele>483.199829</ele><time>2012-06-19T17:27:21Z</time></trkpt>
<trkpt lat="48.26369584" lon="11.59285312"><ele>483.199829</ele><time>2012-06-19T17:27:23Z</time></trkpt>
<trkpt lat="48.26420562" lon="11.59345393"><ele>481.277222</ele><time>2012-06-19T17:27:35Z</time></trkpt>
<trkpt lat="48.26453243" lon="11.59387386"><ele>480.796631</ele><time>2012-06-19T17:27:45Z</time></trkpt>
<trkpt lat="48.26470929" lon="11.59411250"><ele>480.796631</ele><time>2012-06-19T17:27:51Z</time></trkpt>
<trkpt lat="48.26482505" lon="11.59431333"><ele>480.796631</ele><time>2012-06-19T17:27:55Z</time></trkpt>
<trkpt lat="48.26509419" lon="11.59460996"><ele>480.315918</ele><time>2012-06-19T17:28:04Z</time></trkpt>
<trkpt lat="48.26468012" lon="11.59487994"><ele>481.277222</ele><time>2012-06-19T17:28:48Z</time></trkpt>
<trkpt lat="48.26432850" lon="11.59504716"><ele>483.199829</ele><time>2012-06-19T17:28:55Z</time></trkpt>
<trkpt lat="48.26412641" lon="11.59521698"><ele>483.199829</ele><time>2012-06-19T17:29:11Z</time></trkpt>
<trkpt lat="48.26412465" lon="11.59523492"><ele>484.161133</ele><time>2012-06-19T17:29:25Z</time></trkpt>
<trkpt lat="48.26419079" lon="11.59557506"><ele>481.757813</ele><time>2012-06-19T17:29:55Z</time></trkpt>
<trkpt lat="48.26401301" lon="11.59568352"><ele>481.277222</ele><time>2012-06-19T17:30:01Z</time></trkpt>
<trkpt lat="48.26360883" lon="11.59586876"><ele>481.277222</ele><time>2012-06-19T17:30:08Z</time></trkpt>
<trkpt lat="48.26284901" lon="11.59621837"><ele>481.757813</ele><time>2012-06-19T17:30:19Z</time></trkpt>
<trkpt lat="48.26182919" lon="11.59669697"><ele>482.719238</ele><time>2012-06-19T17:30:33Z</time></trkpt>
<trkpt lat="48.26100172" lon="11.59708631"><ele>482.238525</ele><time>2012-06-19T17:30:44Z</time></trkpt>
<trkpt lat="48.26002699" lon="11.59754807"><ele>480.796631</ele><time>2012-06-19T17:30:57Z</time></trkpt>
<trkpt lat="48.25882193" lon="11.59808460"><ele>476.951294</ele><time>2012-06-19T17:31:12Z</time></trkpt>
<trkpt lat="48.25767813" lon="11.59863453"><ele>480.315918</ele><time>2012-06-19T17:31:26Z</time></trkpt>
<trkpt lat="48.25664112" lon="11.59914223"><ele>480.315918</ele><time>2012-06-19T17:31:39Z</time></trkpt>
<trkpt lat="48.25538786" lon="11.59975586"><ele>480.315918</ele><time>2012-06-19T17:31:55Z</time></trkpt>
<trkpt lat="48.25463626" lon="11.60012433"><ele>481.277222</ele><time>2012-06-19T17:32:04Z</time></trkpt>
<trkpt lat="48.25375934" lon="11.60054276"><ele>482.238525</ele><time>2012-06-19T17:32:14Z</time></trkpt>
<trkpt lat="48.25270498" lon="11.60102488"><ele>481.277222</ele><time>2012-06-19T17:32:26Z</time></trkpt>
<trkpt lat="48.25153378" lon="11.60153149"><ele>481.757813</ele><time>2012-06-19T17:32:39Z</time></trkpt>
<trkpt lat="48.25046006" lon="11.60203599"><ele>484.161133</ele><time>2012-06-19T17:32:51Z</time></trkpt>
<trkpt lat="48.24959764" lon="11.60246892"><ele>481.277222</ele><time>2012-06-19T17:33:01Z</time></trkpt>
<trkpt lat="48.24912876" lon="11.60269347"><ele>484.161133</ele><time>2012-06-19T17:33:10Z</time></trkpt>
<trkpt lat="48.24889130" lon="11.60284476"><ele>485.122437</ele><time>2012-06-19T17:33:17Z</time></trkpt>
<trkpt lat="48.24883782" lon="11.60284979"><ele>485.122437</ele><time>2012-06-19T17:33:20Z</time></trkpt>
<trkpt lat="48.24880027" lon="11.60265986"><ele>488.487183</ele><time>2012-06-19T17:33:28Z</time></trkpt>
<trkpt lat="48.24885417" lon="11.60239591"><ele>488.487183</ele><time>2012-06-19T17:33:34Z</time></trkpt>
<trkpt lat="48.24885978" lon="11.60235694"><ele>488.487183</ele><time>2012-06-19T17:33:35Z</time></trkpt>
<trkpt lat="48.24877244" lon="11.60227890"><ele>487.525635</ele><time>2012-06-19T17:33:39Z</time></trkpt>
<trkpt lat="48.24867119" lon="11.60227991"><ele>486.08374</ele><time>2012-06-19T17:33:43Z</time></trkpt>
<trkpt lat="48.24865426" lon="11.60254117"><ele>486.08374</ele><time>2012-06-19T17:33:49Z</time></trkpt>
<trkpt lat="48.24866566" lon="11.60292087"><ele>485.603027</ele><time>2012-06-19T17:33:58Z</time></trkpt>
<trkpt lat="48.24911308" lon="11.60395126"><ele>484.641846</ele><time>2012-06-19T17:34:13Z</time></trkpt>
<trkpt lat="48.24926673" lon="11.60420163"><ele>484.161133</ele><time>2012-06-19T17:34:16Z</time></trkpt>
<trkpt lat="48.24972513" lon="11.60549386"><ele>483.68042</ele><time>2012-06-19T17:34:29Z</time></trkpt>
<trkpt lat="48.25007181" lon="11.60664587"><ele>483.68042</ele><time>2012-06-19T17:34:40Z</time></trkpt>
<trkpt lat="48.25014909" lon="11.60747878"><ele>484.161133</ele><time>2012-06-19T17:34:47Z</time></trkpt>
<trkpt lat="48.25028026" lon="11.60882282"><ele>485.122437</ele><time>2012-06-19T17:34:58Z</time></trkpt>
<trkpt lat="48.25033701" lon="11.61003954"><ele>485.122437</ele><time>2012-06-19T17:35:08Z</time></trkpt>
<trkpt lat="48.25037934" lon="11.61131409"><ele>485.603027</ele><time>2012-06-19T17:35:19Z</time></trkpt>
<trkpt lat="48.25040231" lon="11.61194977"><ele>484.641846</ele><time>2012-06-19T17:35:26Z</time></trkpt>
<trkpt lat="48.25038370" lon="11.61251974"><ele>484.161133</ele><time>2012-06-19T17:35:32Z</time></trkpt>
<trkpt lat="48.25037272" lon="11.61269627"><ele>484.161133</ele><time>2012-06-19T17:35:34Z</time></trkpt>
<trkpt lat="48.25026233" lon="11.61283331"><ele>483.199829</ele><time>2012-06-19T17:35:38Z</time></trkpt>
<trkpt lat="48.25022436" lon="11.61283758"><ele>483.199829</ele><time>2012-06-19T17:35:39Z</time></trkpt>
<trkpt lat="48.25008782" lon="11.61283348"><ele>483.199829</ele><time>2012-06-19T17:35:43Z</time></trkpt>
<trkpt lat="48.25034020" lon="11.61382271"><ele>482.238525</ele><time>2012-06-19T17:36:03Z</time></trkpt>
<trkpt lat="48.25033994" lon="11.61477598"><ele>482.238525</ele><time>2012-06-19T17:36:12Z</time></trkpt>
<trkpt lat="48.25032209" lon="11.61628238"><ele>482.719238</ele><time>2012-06-19T17:36:25Z</time></trkpt>
<trkpt lat="48.25027289" lon="11.61760094"><ele>484.161133</ele><time>2012-06-19T17:36:37Z</time></trkpt>
<trkpt lat="48.25018027" lon="11.61850736"><ele>483.68042</ele><time>2012-06-19T17:36:46Z</time></trkpt>
<trkpt lat="48.25007952" lon="11.61927002"><ele>483.68042</ele><time>2012-06-19T17:36:56Z</time></trkpt>
<trkpt lat="48.24998296" lon="11.61983429"><ele>481.757813</ele><time>2012-06-19T17:37:10Z</time></trkpt>
<trkpt lat="48.24995421" lon="11.62005818"><ele>481.757813</ele><time>2012-06-19T17:37:13Z</time></trkpt>
<trkpt lat="48.24991180" lon="11.62087306"><ele>481.757813</ele><time>2012-06-19T17:37:21Z</time></trkpt>
<trkpt lat="48.24984214" lon="11.62220210"><ele>481.277222</ele><time>2012-06-19T17:37:33Z</time></trkpt>
<trkpt lat="48.24975941" lon="11.62355200"><ele>482.719238</ele><time>2012-06-19T17:37:45Z</time></trkpt>
<trkpt lat="48.24971591" lon="11.62464316"><ele>482.719238</ele><time>2012-06-19T17:37:55Z</time></trkpt>
<trkpt lat="48.24962648" lon="11.62596121"><ele>483.199829</ele><time>2012-06-19T17:38:07Z</time></trkpt>
<trkpt lat="48.24952246" lon="11.62721255"><ele>481.757813</ele><time>2012-06-19T17:38:19Z</time></trkpt>
<trkpt lat="48.24945699" lon="11.62825693"><ele>480.315918</ele><time>2012-06-19T17:38:29Z</time></trkpt>
<trkpt lat="48.24940553" lon="11.62895062"><ele>480.796631</ele><time>2012-06-19T17:38:36Z</time></trkpt>
<trkpt lat="48.24934233" lon="11.62971497"><ele>482.238525</ele><time>2012-06-19T17:38:45Z</time></trkpt>
<trkpt lat="48.24925298" lon="11.63023741"><ele>482.719238</ele><time>2012-06-19T17:38:52Z</time></trkpt>
<trkpt lat="48.24919749" lon="11.63041544"><ele>481.757813</ele><time>2012-06-19T17:39:06Z</time></trkpt>
<trkpt lat="48.24926195" lon="11.63054788"><ele>484.161133</ele><time>2012-06-19T17:39:48Z</time></trkpt>
<trkpt lat="48.24926681" lon="11.63054821"><ele>484.161133</ele><time>2012-06-19T17:39:49Z</time></trkpt>
<trkpt lat="48.24948465" lon="11.63054955"><ele>481.757813</ele><time>2012-06-19T17:39:58Z</time></trkpt>
<trkpt lat="48.24947996" lon="11.63127014"><ele>483.68042</ele><time>2012-06-19T17:40:41Z</time></trkpt>
<trkpt lat="48.24938407" lon="11.63188018"><ele>483.68042</ele><time>2012-06-19T17:40:49Z</time></trkpt>
<trkpt lat="48.24944275" lon="11.63222954"><ele>483.68042</ele><time>2012-06-19T17:40:54Z</time></trkpt>
<trkpt lat="48.24957157" lon="11.63253724"><ele>482.238525</ele><time>2012-06-19T17:40:59Z</time></trkpt>
<trkpt lat="48.24942816" lon="11.63293018"><ele>482.238525</ele><time>2012-06-19T17:41:07Z</time></trkpt>
<trkpt lat="48.24937887" lon="11.63304996"><ele>483.199829</ele><time>2012-06-19T17:41:09Z</time></trkpt>
<trkpt lat="48.24909573" lon="11.63356008"><ele>484.161133</ele><time>2012-06-19T17:41:17Z</time></trkpt>
<trkpt lat="48.24894729" lon="11.63390634"><ele>484.641846</ele><time>2012-06-19T17:41:22Z</time></trkpt>
<trkpt lat="48.24901954" lon="11.63417045"><ele>483.68042</ele><time>2012-06-19T17:41:26Z</time></trkpt>
<trkpt lat="48.24967098" lon="11.63482675"><ele>484.161133</ele><time>2012-06-19T17:41:39Z</time></trkpt>
<trkpt lat="48.24980836" lon="11.63497629"><ele>483.68042</ele><time>2012-06-19T17:41:42Z</time></trkpt>
<trkpt lat="48.24973259" lon="11.63533621"><ele>484.641846</ele><time>2012-06-19T17:41:48Z</time></trkpt>
<trkpt lat="48.24965095" lon="11.63541156"><ele>485.122437</ele><time>2012-06-19T17:41:50Z</time></trkpt>
<trkpt lat="48.24943059" lon="11.63565916"><ele>485.603027</ele><time>2012-06-19T17:41:56Z</time></trkpt>
<trkpt lat="48.24948231" lon="11.63584943"><ele>485.122437</ele><time>2012-06-19T17:41:59Z</time></trkpt>
<trkpt lat="48.24977919" lon="11.63601078"><ele>483.68042</ele><time>2012-06-19T17:42:05Z</time></trkpt>
<trkpt lat="48.25008681" lon="11.63679608"><ele>485.122437</ele><time>2012-06-19T17:42:13Z</time></trkpt>
<trkpt lat="48.25056433" lon="11.63803283"><ele>484.161133</ele><time>2012-06-19T17:42:25Z</time></trkpt>
<trkpt lat="48.25085996" lon="11.63896222"><ele>483.199829</ele><time>2012-06-19T17:42:34Z</time></trkpt>
<trkpt lat="48.25092676" lon="11.63971785"><ele>483.199829</ele><time>2012-06-19T17:42:41Z</time></trkpt>
<trkpt lat="48.25087664" lon="11.64063038"><ele>483.199829</ele><time>2012-06-19T17:42:49Z</time></trkpt>
<trkpt lat="48.25052678" lon="11.64206704"><ele>479.354492</ele><time>2012-06-19T17:43:03Z</time></trkpt>
<trkpt lat="48.25033081" lon="11.64274413"><ele>477.431885</ele><time>2012-06-19T17:43:10Z</time></trkpt>
<trkpt lat="48.24973226" lon="11.64528712"><ele>480.796631</ele><time>2012-06-19T17:43:38Z</time></trkpt>
<trkpt lat="48.24962061" lon="11.64631801"><ele>480.315918</ele><time>2012-06-19T17:43:50Z</time></trkpt>
<trkpt lat="48.24963712" lon="11.64652806"><ele>479.835083</ele><time>2012-06-19T17:44:06Z</time></trkpt>
<trkpt lat="48.24953050" lon="11.64904137"><ele>482.238525</ele><time>2012-06-19T17:45:24Z</time></trkpt>
<trkpt lat="48.24936915" lon="11.65030201"><ele>481.757813</ele><time>2012-06-19T17:45:36Z</time></trkpt>
<trkpt lat="48.24933395" lon="11.65053595"><ele>481.757813</ele><time>2012-06-19T17:45:38Z</time></trkpt>
<trkpt lat="48.24811782" lon="11.65085672"><ele>484.641846</ele><time>2012-06-19T17:46:09Z</time></trkpt>
<trkpt lat="48.24782898" lon="11.65066109"><ele>484.161133</ele><time>2012-06-19T17:46:13Z</time></trkpt>
<trkpt lat="48.24735356" lon="11.65000881"><ele>484.641846</ele><time>2012-06-19T17:46:21Z</time></trkpt>
<trkpt lat="48.24652249" lon="11.64874993"><ele>485.603027</ele><time>2012-06-19T17:46:36Z</time></trkpt>
<trkpt lat="48.24585604" lon="11.64780286"><ele>487.045044</ele><time>2012-06-19T17:46:48Z</time></trkpt>
<trkpt lat="48.24520963" lon="11.64727866"><ele>487.525635</ele><time>2012-06-19T17:46:57Z</time></trkpt>
<trkpt lat="48.24439122" lon="11.64674775"><ele>489.929077</ele><time>2012-06-19T17:47:08Z</time></trkpt>
<trkpt lat="48.24391094" lon="11.64641918"><ele>490.40979</ele><time>2012-06-19T17:47:16Z</time></trkpt>
<trkpt lat="48.24340300" lon="11.64603453"><ele>490.890381</ele><time>2012-06-19T17:47:26Z</time></trkpt>
<trkpt lat="48.24329621" lon="11.64596974"><ele>491.851685</ele><time>2012-06-19T17:47:30Z</time></trkpt>
<trkpt lat="48.24310653" lon="11.64585114"><ele>491.851685</ele><time>2012-06-19T17:47:36Z</time></trkpt>
<trkpt lat="48.24271677" lon="11.64558769"><ele>491.851685</ele><time>2012-06-19T17:47:44Z</time></trkpt>
<trkpt lat="48.24261091" lon="11.64551083"><ele>491.851685</ele><time>2012-06-19T17:47:46Z</time></trkpt>
<trkpt lat="48.24225074" lon="11.64514764"><ele>499.061523</ele><time>2012-06-19T17:48:40Z</time></trkpt>
<trkpt lat="48.24211285" lon="11.64503306"><ele>499.061523</ele><time>2012-06-19T17:48:45Z</time></trkpt>
<trkpt lat="48.24157264" lon="11.64458019"><ele>494.255005</ele><time>2012-06-19T17:48:55Z</time></trkpt>
<trkpt lat="48.24144163" lon="11.64449436"><ele>493.774292</ele><time>2012-06-19T17:48:57Z</time></trkpt>
<trkpt lat="48.24117023" lon="11.64436301"><ele>492.812988</ele><time>2012-06-19T17:49:01Z</time></trkpt>
<trkpt lat="48.24098197" lon="11.64405087"><ele>490.890381</ele><time>2012-06-19T17:49:05Z</time></trkpt>
<trkpt lat="48.24075205" lon="11.64372331"><ele>488.967773</ele><time>2012-06-19T17:49:09Z</time></trkpt>
<trkpt lat="48.24048056" lon="11.64365801"><ele>486.08374</ele><time>2012-06-19T17:49:13Z</time></trkpt>
<trkpt lat="48.24035794" lon="11.64382179"><ele>486.08374</ele><time>2012-06-19T17:49:16Z</time></trkpt>
<trkpt lat="48.24020069" lon="11.64379690"><ele>484.641846</ele><time>2012-06-19T17:49:20Z</time></trkpt>
<trkpt lat="48.23966693" lon="11.64339507"><ele>485.603027</ele><time>2012-06-19T17:49:29Z</time></trkpt>
<trkpt lat="48.23896998" lon="11.64291093"><ele>487.045044</ele><time>2012-06-19T17:49:39Z</time></trkpt>
<trkpt lat="48.23814855" lon="11.64236711"><ele>487.525635</ele><time>2012-06-19T17:49:51Z</time></trkpt>
<trkpt lat="48.23723107" lon="11.64196705"><ele>487.525635</ele><time>2012-06-19T17:50:05Z</time></trkpt>
<trkpt lat="48.23668163" lon="11.64177485"><ele>492.332397</ele><time>2012-06-19T17:50:14Z</time></trkpt>
<trkpt lat="48.23657158" lon="11.64172523"><ele>492.332397</ele><time>2012-06-19T17:50:16Z</time></trkpt>
<trkpt lat="48.23576314" lon="11.64154166"><ele>491.851685</ele><time>2012-06-19T17:50:27Z</time></trkpt>
<trkpt lat="48.23495328" lon="11.64137729"><ele>490.890381</ele><time>2012-06-19T17:50:37Z</time></trkpt>
<trkpt lat="48.23398400" lon="11.64123463"><ele>490.40979</ele><time>2012-06-19T17:50:49Z</time></trkpt>
<trkpt lat="48.23333700" lon="11.64111704"><ele>490.40979</ele><time>2012-06-19T17:50:57Z</time></trkpt>
<trkpt lat="48.23234978" lon="11.64108762"><ele>490.40979</ele><time>2012-06-19T17:51:09Z</time></trkpt>
<trkpt lat="48.23144127" lon="11.64106071"><ele>492.812988</ele><time>2012-06-19T17:51:25Z</time></trkpt>
<trkpt lat="48.23107523" lon="11.64111846"><ele>490.40979</ele><time>2012-06-19T17:51:32Z</time></trkpt>
<trkpt lat="48.23059411" lon="11.64120639"><ele>490.40979</ele><time>2012-06-19T17:51:39Z</time></trkpt>
<trkpt lat="48.23043351" lon="11.64122089"><ele>490.40979</ele><time>2012-06-19T17:51:41Z</time></trkpt>
<trkpt lat="48.22972633" lon="11.64114243"><ele>488.967773</ele><time>2012-06-19T17:51:50Z</time></trkpt>
<trkpt lat="48.22912015" lon="11.64096524"><ele>491.851685</ele><time>2012-06-19T17:51:58Z</time></trkpt>
<trkpt lat="48.22859318" lon="11.64078897"><ele>494.255005</ele><time>2012-06-19T17:52:05Z</time></trkpt>
<trkpt lat="48.22760554" lon="11.64043425"><ele>494.735596</ele><time>2012-06-19T17:52:18Z</time></trkpt>
<trkpt lat="48.22650659" lon="11.63999286"><ele>490.890381</ele><time>2012-06-19T17:52:32Z</time></trkpt>
<trkpt lat="48.22576278" lon="11.63972262"><ele>493.774292</ele><time>2012-06-19T17:52:42Z</time></trkpt>
<trkpt lat="48.22499793" lon="11.63945071"><ele>492.332397</ele><time>2012-06-19T17:52:52Z</time></trkpt>
<trkpt lat="48.22407693" lon="11.63909775"><ele>494.735596</ele><time>2012-06-19T17:53:04Z</time></trkpt>
<trkpt lat="48.22308007" lon="11.63873649"><ele>495.696899</ele><time>2012-06-19T17:53:17Z</time></trkpt>
<trkpt lat="48.22167660" lon="11.63822721"><ele>498.580933</ele><time>2012-06-19T17:53:35Z</time></trkpt>
<trkpt lat="48.22018219" lon="11.63768917"><ele>495.696899</ele><time>2012-06-19T17:53:54Z</time></trkpt>
<trkpt lat="48.21900303" lon="11.63724066"><ele>495.696899</ele><time>2012-06-19T17:54:09Z</time></trkpt>
<trkpt lat="48.21757575" lon="11.63670187"><ele>495.696899</ele><time>2012-06-19T17:54:28Z</time></trkpt>
<trkpt lat="48.21470202" lon="11.63717872"><ele>495.696899</ele><time>2012-06-19T17:55:04Z</time></trkpt>
<trkpt lat="48.21027319" lon="11.63327325"><ele>493.774292</ele><time>2012-06-19T17:55:59Z</time></trkpt>
<trkpt lat="48.20712092" lon="11.63131784"><ele>500.50354</ele><time>2012-06-19T17:56:45Z</time></trkpt>
<trkpt lat="48.20408508" lon="11.62947591"><ele>506.752075</ele><time>2012-06-19T17:57:26Z</time></trkpt>
<trkpt lat="48.20107036" lon="11.62764103"><ele>505.310181</ele><time>2012-06-19T17:58:05Z</time></trkpt>
<trkpt lat="48.19980025" lon="11.62687669"><ele>505.310181</ele><time>2012-06-19T17:58:23Z</time></trkpt>
<trkpt lat="48.19804952" lon="11.62583088"><ele>504.829468</ele><time>2012-06-19T17:58:51Z</time></trkpt>
<trkpt lat="48.19279022" lon="11.62255858"><ele>504.829468</ele><time>2012-06-19T18:00:02Z</time></trkpt>
<trkpt lat="48.19195379" lon="11.62197193"><ele>505.310181</ele><time>2012-06-19T18:00:14Z</time></trkpt>
<trkpt lat="48.19170300" lon="11.62124346"><ele>496.658325</ele><time>2012-06-19T18:01:58Z</time></trkpt>
<trkpt lat="48.19176150" lon="11.62117314"><ele>495.216187</ele><time>2012-06-19T18:02:03Z</time></trkpt>
<trkpt lat="48.19111082" lon="11.61935099"><ele>498.580933</ele><time>2012-06-19T18:02:24Z</time></trkpt>
<trkpt lat="48.19078770" lon="11.61774334"><ele>501.464844</ele><time>2012-06-19T18:02:37Z</time></trkpt>
<trkpt lat="48.19064294" lon="11.61702661"><ele>500.984131</ele><time>2012-06-19T18:02:44Z</time></trkpt>
<trkpt lat="48.19059206" lon="11.61670642"><ele>500.50354</ele><time>2012-06-19T18:02:49Z</time></trkpt>
<trkpt lat="48.19055501" lon="11.61646544"><ele>500.022949</ele><time>2012-06-19T18:02:56Z</time></trkpt>
<trkpt lat="48.19053590" lon="11.61641196"><ele>499.542236</ele><time>2012-06-19T18:03:03Z</time></trkpt>
<trkpt lat="48.18962186" lon="11.61469853"><ele>500.50354</ele><time>2012-06-19T18:03:32Z</time></trkpt>
<trkpt lat="48.18873790" lon="11.61354292"><ele>503.387451</ele><time>2012-06-19T18:03:47Z</time></trkpt>
<trkpt lat="48.18743787" lon="11.61210752"><ele>504.348877</ele><time>2012-06-19T18:04:07Z</time></trkpt>
<trkpt lat="48.18639927" lon="11.61105257"><ele>508.674683</ele><time>2012-06-19T18:04:24Z</time></trkpt>
<trkpt lat="48.18592452" lon="11.61053943"><ele>508.194092</ele><time>2012-06-19T18:04:38Z</time></trkpt>
</trkseg></trk></gpx>